<?xml version="1.0" encoding="UTF-8" standalone="no" ?>
<gpx xmlns="http://www.topografix.com/GPX/1/1" xmlns:xsi="http://www.w3.org/2001/XMLSchema-instance" xsi:schemaLocation="http://www.topografix.com/GPX/1/1 http://www.topografix.com/GPX/1/1/gpx.xsd" version="1.1" creator="VisuGPX - https://www.visugpx.com">
  <metadata>
    <name>Bussières-Néronde</name>
    <desc><![CDATA[Environs de Bussières et Néronde, en reliant les 2 villages.]]></desc>
  </metadata>
  <trk>
    <name><![CDATA[20181121171022-5yY3F]]></name>
    <trkseg>
      <trkpt lat="45.83563" lon="4.27006">
        <ele>635.364</ele>
        <time>2018-11-21T13:43:19Z</time>
      </trkpt>
      <trkpt lat="45.83561" lon="4.27007">
        <ele>637.305</ele>
        <time>2018-11-21T13:43:24Z</time>
      </trkpt>
      <trkpt lat="45.83561" lon="4.27007">
        <ele>639.876</ele>
        <time>2018-11-21T13:43:30Z</time>
      </trkpt>
      <trkpt lat="45.83561" lon="4.27007">
        <ele>643.804</ele>
        <time>2018-11-21T13:43:36Z</time>
      </trkpt>
      <trkpt lat="45.83561" lon="4.27007">
        <ele>644.387</ele>
        <time>2018-11-21T13:43:41Z</time>
      </trkpt>
      <trkpt lat="45.83561" lon="4.27007">
        <ele>641.82</ele>
        <time>2018-11-21T13:43:47Z</time>
      </trkpt>
      <trkpt lat="45.83561" lon="4.27007">
        <ele>642.614</ele>
        <time>2018-11-21T13:43:53Z</time>
      </trkpt>
      <trkpt lat="45.83561" lon="4.27007">
        <ele>642.625</ele>
        <time>2018-11-21T13:43:58Z</time>
      </trkpt>
      <trkpt lat="45.83561" lon="4.27007">
        <ele>642.645</ele>
        <time>2018-11-21T13:44:04Z</time>
      </trkpt>
      <trkpt lat="45.83561" lon="4.27007">
        <ele>642.652</ele>
        <time>2018-11-21T13:44:06Z</time>
      </trkpt>
      <trkpt lat="45.83561" lon="4.27007">
        <ele>642.575</ele>
        <time>2018-11-21T13:44:11Z</time>
      </trkpt>
      <trkpt lat="45.83561" lon="4.27007">
        <ele>642.597</ele>
        <time>2018-11-21T13:44:16Z</time>
      </trkpt>
      <trkpt lat="45.83561" lon="4.27007">
        <ele>643.511</ele>
        <time>2018-11-21T13:44:21Z</time>
      </trkpt>
      <trkpt lat="45.8357" lon="4.26996">
        <ele>643.978</ele>
        <time>2018-11-21T13:44:27Z</time>
      </trkpt>
      <trkpt lat="45.83578" lon="4.26982">
        <ele>644.616</ele>
        <time>2018-11-21T13:44:33Z</time>
      </trkpt>
      <trkpt lat="45.83578" lon="4.26982">
        <ele>644.657</ele>
        <time>2018-11-21T13:44:38Z</time>
      </trkpt>
      <trkpt lat="45.83578" lon="4.26982">
        <ele>644.715</ele>
        <time>2018-11-21T13:44:43Z</time>
      </trkpt>
      <trkpt lat="45.83591" lon="4.26961">
        <ele>644.812</ele>
        <time>2018-11-21T13:44:49Z</time>
      </trkpt>
      <trkpt lat="45.83597" lon="4.26953">
        <ele>645.053</ele>
        <time>2018-11-21T13:44:54Z</time>
      </trkpt>
      <trkpt lat="45.83602" lon="4.26943">
        <ele>645.816</ele>
        <time>2018-11-21T13:45:00Z</time>
      </trkpt>
      <trkpt lat="45.83608" lon="4.26939">
        <ele>646.345</ele>
        <time>2018-11-21T13:45:05Z</time>
      </trkpt>
      <trkpt lat="45.83615" lon="4.26936">
        <ele>647.577</ele>
        <time>2018-11-21T13:45:11Z</time>
      </trkpt>
      <trkpt lat="45.83622" lon="4.2693">
        <ele>648.925</ele>
        <time>2018-11-21T13:45:16Z</time>
      </trkpt>
      <trkpt lat="45.83629" lon="4.2693">
        <ele>649.405</ele>
        <time>2018-11-21T13:45:22Z</time>
      </trkpt>
      <trkpt lat="45.83635" lon="4.26924">
        <ele>650.428</ele>
        <time>2018-11-21T13:45:28Z</time>
      </trkpt>
      <trkpt lat="45.83641" lon="4.26917">
        <ele>651.564</ele>
        <time>2018-11-21T13:45:33Z</time>
      </trkpt>
      <trkpt lat="45.83648" lon="4.26911">
        <ele>651.894</ele>
        <time>2018-11-21T13:45:38Z</time>
      </trkpt>
      <trkpt lat="45.83655" lon="4.26906">
        <ele>652.004</ele>
        <time>2018-11-21T13:45:44Z</time>
      </trkpt>
      <trkpt lat="45.83662" lon="4.269">
        <ele>652.326</ele>
        <time>2018-11-21T13:45:49Z</time>
      </trkpt>
      <trkpt lat="45.83669" lon="4.26896">
        <ele>652.025</ele>
        <time>2018-11-21T13:45:54Z</time>
      </trkpt>
      <trkpt lat="45.83676" lon="4.26896">
        <ele>652.351</ele>
        <time>2018-11-21T13:46:00Z</time>
      </trkpt>
      <trkpt lat="45.83685" lon="4.26894">
        <ele>652.767</ele>
        <time>2018-11-21T13:46:05Z</time>
      </trkpt>
      <trkpt lat="45.83694" lon="4.26884">
        <ele>653.718</ele>
        <time>2018-11-21T13:46:11Z</time>
      </trkpt>
      <trkpt lat="45.837" lon="4.26881">
        <ele>654.043</ele>
        <time>2018-11-21T13:46:16Z</time>
      </trkpt>
      <trkpt lat="45.83704" lon="4.26878">
        <ele>653.324</ele>
        <time>2018-11-21T13:46:22Z</time>
      </trkpt>
      <trkpt lat="45.8371" lon="4.26877">
        <ele>653.029</ele>
        <time>2018-11-21T13:46:27Z</time>
      </trkpt>
      <trkpt lat="45.83717" lon="4.26875">
        <ele>653.083</ele>
        <time>2018-11-21T13:46:33Z</time>
      </trkpt>
      <trkpt lat="45.83726" lon="4.26878">
        <ele>652.882</ele>
        <time>2018-11-21T13:46:38Z</time>
      </trkpt>
      <trkpt lat="45.83733" lon="4.26877">
        <ele>652.177</ele>
        <time>2018-11-21T13:46:43Z</time>
      </trkpt>
      <trkpt lat="45.83737" lon="4.26868">
        <ele>650.931</ele>
        <time>2018-11-21T13:46:49Z</time>
      </trkpt>
      <trkpt lat="45.83742" lon="4.26862">
        <ele>649.623</ele>
        <time>2018-11-21T13:46:54Z</time>
      </trkpt>
      <trkpt lat="45.83746" lon="4.26852">
        <ele>648.552</ele>
        <time>2018-11-21T13:46:59Z</time>
      </trkpt>
      <trkpt lat="45.83753" lon="4.26843">
        <ele>646.945</ele>
        <time>2018-11-21T13:47:05Z</time>
      </trkpt>
      <trkpt lat="45.83759" lon="4.26835">
        <ele>645.656</ele>
        <time>2018-11-21T13:47:10Z</time>
      </trkpt>
      <trkpt lat="45.83767" lon="4.26828">
        <ele>644.621</ele>
        <time>2018-11-21T13:47:16Z</time>
      </trkpt>
      <trkpt lat="45.83776" lon="4.26824">
        <ele>644.114</ele>
        <time>2018-11-21T13:47:22Z</time>
      </trkpt>
      <trkpt lat="45.83784" lon="4.26821">
        <ele>643.668</ele>
        <time>2018-11-21T13:47:27Z</time>
      </trkpt>
      <trkpt lat="45.83791" lon="4.26815">
        <ele>643.141</ele>
        <time>2018-11-21T13:47:33Z</time>
      </trkpt>
      <trkpt lat="45.83797" lon="4.26812">
        <ele>642.826</ele>
        <time>2018-11-21T13:47:38Z</time>
      </trkpt>
      <trkpt lat="45.83798" lon="4.26803">
        <ele>642.46</ele>
        <time>2018-11-21T13:47:43Z</time>
      </trkpt>
      <trkpt lat="45.83796" lon="4.26789">
        <ele>641.492</ele>
        <time>2018-11-21T13:47:49Z</time>
      </trkpt>
      <trkpt lat="45.83793" lon="4.26782">
        <ele>640.912</ele>
        <time>2018-11-21T13:47:54Z</time>
      </trkpt>
      <trkpt lat="45.83788" lon="4.2677">
        <ele>640.325</ele>
        <time>2018-11-21T13:48:00Z</time>
      </trkpt>
      <trkpt lat="45.83785" lon="4.26757">
        <ele>639.809</ele>
        <time>2018-11-21T13:48:06Z</time>
      </trkpt>
      <trkpt lat="45.8378" lon="4.26748">
        <ele>639.961</ele>
        <time>2018-11-21T13:48:12Z</time>
      </trkpt>
      <trkpt lat="45.83779" lon="4.26738">
        <ele>640.354</ele>
        <time>2018-11-21T13:48:17Z</time>
      </trkpt>
      <trkpt lat="45.83777" lon="4.26727">
        <ele>640.79</ele>
        <time>2018-11-21T13:48:23Z</time>
      </trkpt>
      <trkpt lat="45.83772" lon="4.26717">
        <ele>640.924</ele>
        <time>2018-11-21T13:48:29Z</time>
      </trkpt>
      <trkpt lat="45.83765" lon="4.26707">
        <ele>641.499</ele>
        <time>2018-11-21T13:48:35Z</time>
      </trkpt>
      <trkpt lat="45.8376" lon="4.26698">
        <ele>641.492</ele>
        <time>2018-11-21T13:48:40Z</time>
      </trkpt>
      <trkpt lat="45.83756" lon="4.26691">
        <ele>640.624</ele>
        <time>2018-11-21T13:48:46Z</time>
      </trkpt>
      <trkpt lat="45.83753" lon="4.26678">
        <ele>640.291</ele>
        <time>2018-11-21T13:48:52Z</time>
      </trkpt>
      <trkpt lat="45.83752" lon="4.26671">
        <ele>639.543</ele>
        <time>2018-11-21T13:48:57Z</time>
      </trkpt>
      <trkpt lat="45.83757" lon="4.26662">
        <ele>638.891</ele>
        <time>2018-11-21T13:49:03Z</time>
      </trkpt>
      <trkpt lat="45.83766" lon="4.26654">
        <ele>639.168</ele>
        <time>2018-11-21T13:49:09Z</time>
      </trkpt>
      <trkpt lat="45.83774" lon="4.26652">
        <ele>640.44</ele>
        <time>2018-11-21T13:49:14Z</time>
      </trkpt>
      <trkpt lat="45.83784" lon="4.26658">
        <ele>641.31</ele>
        <time>2018-11-21T13:49:20Z</time>
      </trkpt>
      <trkpt lat="45.83792" lon="4.26663">
        <ele>641.394</ele>
        <time>2018-11-21T13:49:26Z</time>
      </trkpt>
      <trkpt lat="45.83798" lon="4.2667">
        <ele>641.103</ele>
        <time>2018-11-21T13:49:31Z</time>
      </trkpt>
      <trkpt lat="45.83803" lon="4.26675">
        <ele>641.001</ele>
        <time>2018-11-21T13:49:36Z</time>
      </trkpt>
      <trkpt lat="45.83811" lon="4.26683">
        <ele>640.972</ele>
        <time>2018-11-21T13:49:42Z</time>
      </trkpt>
      <trkpt lat="45.83819" lon="4.2669">
        <ele>640.909</ele>
        <time>2018-11-21T13:49:48Z</time>
      </trkpt>
      <trkpt lat="45.83825" lon="4.26694">
        <ele>640.234</ele>
        <time>2018-11-21T13:49:53Z</time>
      </trkpt>
      <trkpt lat="45.83831" lon="4.26701">
        <ele>640.285</ele>
        <time>2018-11-21T13:49:59Z</time>
      </trkpt>
      <trkpt lat="45.83836" lon="4.26708">
        <ele>640.465</ele>
        <time>2018-11-21T13:50:04Z</time>
      </trkpt>
      <trkpt lat="45.83839" lon="4.26715">
        <ele>640.146</ele>
        <time>2018-11-21T13:50:09Z</time>
      </trkpt>
      <trkpt lat="45.83845" lon="4.26723">
        <ele>640.074</ele>
        <time>2018-11-21T13:50:15Z</time>
      </trkpt>
      <trkpt lat="45.83852" lon="4.26732">
        <ele>640.23</ele>
        <time>2018-11-21T13:50:21Z</time>
      </trkpt>
      <trkpt lat="45.83857" lon="4.26738">
        <ele>639.95</ele>
        <time>2018-11-21T13:50:26Z</time>
      </trkpt>
      <trkpt lat="45.83862" lon="4.26747">
        <ele>639.9</ele>
        <time>2018-11-21T13:50:32Z</time>
      </trkpt>
      <trkpt lat="45.83872" lon="4.26755">
        <ele>640.276</ele>
        <time>2018-11-21T13:50:38Z</time>
      </trkpt>
      <trkpt lat="45.83879" lon="4.26763">
        <ele>640.818</ele>
        <time>2018-11-21T13:50:44Z</time>
      </trkpt>
      <trkpt lat="45.83885" lon="4.26769">
        <ele>641.373</ele>
        <time>2018-11-21T13:50:49Z</time>
      </trkpt>
      <trkpt lat="45.83891" lon="4.26773">
        <ele>641.649</ele>
        <time>2018-11-21T13:50:54Z</time>
      </trkpt>
      <trkpt lat="45.83895" lon="4.26783">
        <ele>641.576</ele>
        <time>2018-11-21T13:51:00Z</time>
      </trkpt>
      <trkpt lat="45.83899" lon="4.26788">
        <ele>641.506</ele>
        <time>2018-11-21T13:51:05Z</time>
      </trkpt>
      <trkpt lat="45.83903" lon="4.26792">
        <ele>640.864</ele>
        <time>2018-11-21T13:51:10Z</time>
      </trkpt>
      <trkpt lat="45.83918" lon="4.268">
        <ele>639.976</ele>
        <time>2018-11-21T13:51:16Z</time>
      </trkpt>
      <trkpt lat="45.83926" lon="4.26805">
        <ele>639.64</ele>
        <time>2018-11-21T13:51:21Z</time>
      </trkpt>
      <trkpt lat="45.83933" lon="4.2681">
        <ele>639.938</ele>
        <time>2018-11-21T13:51:27Z</time>
      </trkpt>
      <trkpt lat="45.83937" lon="4.26815">
        <ele>640.419</ele>
        <time>2018-11-21T13:51:32Z</time>
      </trkpt>
      <trkpt lat="45.83947" lon="4.2682">
        <ele>640.574</ele>
        <time>2018-11-21T13:51:37Z</time>
      </trkpt>
      <trkpt lat="45.83954" lon="4.26823">
        <ele>640.431</ele>
        <time>2018-11-21T13:51:43Z</time>
      </trkpt>
      <trkpt lat="45.83959" lon="4.26826">
        <ele>639.581</ele>
        <time>2018-11-21T13:51:48Z</time>
      </trkpt>
      <trkpt lat="45.83966" lon="4.26829">
        <ele>638.218</ele>
        <time>2018-11-21T13:51:53Z</time>
      </trkpt>
      <trkpt lat="45.83976" lon="4.26837">
        <ele>636.618</ele>
        <time>2018-11-21T13:51:59Z</time>
      </trkpt>
      <trkpt lat="45.83985" lon="4.26841">
        <ele>635.334</ele>
        <time>2018-11-21T13:52:05Z</time>
      </trkpt>
      <trkpt lat="45.83993" lon="4.26844">
        <ele>634.655</ele>
        <time>2018-11-21T13:52:11Z</time>
      </trkpt>
      <trkpt lat="45.83999" lon="4.26847">
        <ele>635.04</ele>
        <time>2018-11-21T13:52:16Z</time>
      </trkpt>
      <trkpt lat="45.84005" lon="4.26852">
        <ele>634.957</ele>
        <time>2018-11-21T13:52:21Z</time>
      </trkpt>
      <trkpt lat="45.84012" lon="4.2686">
        <ele>634.634</ele>
        <time>2018-11-21T13:52:27Z</time>
      </trkpt>
      <trkpt lat="45.84017" lon="4.26868">
        <ele>634.729</ele>
        <time>2018-11-21T13:52:32Z</time>
      </trkpt>
      <trkpt lat="45.84025" lon="4.26875">
        <ele>634.758</ele>
        <time>2018-11-21T13:52:38Z</time>
      </trkpt>
      <trkpt lat="45.84032" lon="4.26879">
        <ele>634.719</ele>
        <time>2018-11-21T13:52:43Z</time>
      </trkpt>
      <trkpt lat="45.84039" lon="4.2688">
        <ele>635.122</ele>
        <time>2018-11-21T13:52:49Z</time>
      </trkpt>
      <trkpt lat="45.84047" lon="4.26874">
        <ele>635.41</ele>
        <time>2018-11-21T13:52:54Z</time>
      </trkpt>
      <trkpt lat="45.84054" lon="4.26866">
        <ele>635.965</ele>
        <time>2018-11-21T13:53:00Z</time>
      </trkpt>
      <trkpt lat="45.84055" lon="4.26852">
        <ele>635.146</ele>
        <time>2018-11-21T13:53:06Z</time>
      </trkpt>
      <trkpt lat="45.84053" lon="4.26839">
        <ele>633.737</ele>
        <time>2018-11-21T13:53:12Z</time>
      </trkpt>
      <trkpt lat="45.84053" lon="4.2683">
        <ele>633.205</ele>
        <time>2018-11-21T13:53:17Z</time>
      </trkpt>
      <trkpt lat="45.84053" lon="4.26821">
        <ele>632.919</ele>
        <time>2018-11-21T13:53:22Z</time>
      </trkpt>
      <trkpt lat="45.84055" lon="4.26809">
        <ele>632.726</ele>
        <time>2018-11-21T13:53:28Z</time>
      </trkpt>
      <trkpt lat="45.84052" lon="4.268">
        <ele>633.098</ele>
        <time>2018-11-21T13:53:33Z</time>
      </trkpt>
      <trkpt lat="45.84051" lon="4.2679">
        <ele>633.408</ele>
        <time>2018-11-21T13:53:38Z</time>
      </trkpt>
      <trkpt lat="45.84049" lon="4.26779">
        <ele>633.586</ele>
        <time>2018-11-21T13:53:44Z</time>
      </trkpt>
      <trkpt lat="45.8405" lon="4.26766">
        <ele>633.4</ele>
        <time>2018-11-21T13:53:50Z</time>
      </trkpt>
      <trkpt lat="45.84054" lon="4.26755">
        <ele>632.763</ele>
        <time>2018-11-21T13:53:56Z</time>
      </trkpt>
      <trkpt lat="45.84058" lon="4.26747">
        <ele>632.191</ele>
        <time>2018-11-21T13:54:01Z</time>
      </trkpt>
      <trkpt lat="45.84063" lon="4.26736">
        <ele>631.431</ele>
        <time>2018-11-21T13:54:06Z</time>
      </trkpt>
      <trkpt lat="45.84071" lon="4.26729">
        <ele>631.105</ele>
        <time>2018-11-21T13:54:12Z</time>
      </trkpt>
      <trkpt lat="45.84076" lon="4.26726">
        <ele>631.012</ele>
        <time>2018-11-21T13:54:17Z</time>
      </trkpt>
      <trkpt lat="45.84083" lon="4.2672">
        <ele>631.417</ele>
        <time>2018-11-21T13:54:23Z</time>
      </trkpt>
      <trkpt lat="45.84092" lon="4.26718">
        <ele>632.476</ele>
        <time>2018-11-21T13:54:28Z</time>
      </trkpt>
      <trkpt lat="45.84099" lon="4.26714">
        <ele>633.472</ele>
        <time>2018-11-21T13:54:34Z</time>
      </trkpt>
      <trkpt lat="45.84107" lon="4.26718">
        <ele>633.843</ele>
        <time>2018-11-21T13:54:40Z</time>
      </trkpt>
      <trkpt lat="45.84114" lon="4.26725">
        <ele>634.852</ele>
        <time>2018-11-21T13:54:45Z</time>
      </trkpt>
      <trkpt lat="45.84125" lon="4.26728">
        <ele>635.469</ele>
        <time>2018-11-21T13:54:51Z</time>
      </trkpt>
      <trkpt lat="45.84131" lon="4.26731">
        <ele>636.433</ele>
        <time>2018-11-21T13:54:56Z</time>
      </trkpt>
      <trkpt lat="45.84136" lon="4.26735">
        <ele>637.58</ele>
        <time>2018-11-21T13:55:01Z</time>
      </trkpt>
      <trkpt lat="45.84145" lon="4.26737">
        <ele>639.253</ele>
        <time>2018-11-21T13:55:07Z</time>
      </trkpt>
      <trkpt lat="45.84151" lon="4.26744">
        <ele>640.767</ele>
        <time>2018-11-21T13:55:13Z</time>
      </trkpt>
      <trkpt lat="45.84155" lon="4.26749">
        <ele>641.646</ele>
        <time>2018-11-21T13:55:19Z</time>
      </trkpt>
      <trkpt lat="45.84161" lon="4.26756">
        <ele>641.736</ele>
        <time>2018-11-21T13:55:24Z</time>
      </trkpt>
      <trkpt lat="45.8417" lon="4.26762">
        <ele>641.852</ele>
        <time>2018-11-21T13:55:29Z</time>
      </trkpt>
      <trkpt lat="45.84177" lon="4.26767">
        <ele>642.345</ele>
        <time>2018-11-21T13:55:35Z</time>
      </trkpt>
      <trkpt lat="45.84183" lon="4.26771">
        <ele>642.92</ele>
        <time>2018-11-21T13:55:41Z</time>
      </trkpt>
      <trkpt lat="45.8419" lon="4.26777">
        <ele>643.427</ele>
        <time>2018-11-21T13:55:47Z</time>
      </trkpt>
      <trkpt lat="45.84196" lon="4.26781">
        <ele>643.705</ele>
        <time>2018-11-21T13:55:52Z</time>
      </trkpt>
      <trkpt lat="45.84203" lon="4.26787">
        <ele>643.771</ele>
        <time>2018-11-21T13:55:58Z</time>
      </trkpt>
      <trkpt lat="45.84209" lon="4.26792">
        <ele>643.778</ele>
        <time>2018-11-21T13:56:04Z</time>
      </trkpt>
      <trkpt lat="45.84214" lon="4.26795">
        <ele>644.105</ele>
        <time>2018-11-21T13:56:09Z</time>
      </trkpt>
      <trkpt lat="45.84222" lon="4.268">
        <ele>644.31</ele>
        <time>2018-11-21T13:56:15Z</time>
      </trkpt>
      <trkpt lat="45.8423" lon="4.26802">
        <ele>644.148</ele>
        <time>2018-11-21T13:56:20Z</time>
      </trkpt>
      <trkpt lat="45.84236" lon="4.26804">
        <ele>644.296</ele>
        <time>2018-11-21T13:56:26Z</time>
      </trkpt>
      <trkpt lat="45.84244" lon="4.26807">
        <ele>644.569</ele>
        <time>2018-11-21T13:56:32Z</time>
      </trkpt>
      <trkpt lat="45.84253" lon="4.26809">
        <ele>644.43</ele>
        <time>2018-11-21T13:56:37Z</time>
      </trkpt>
      <trkpt lat="45.84262" lon="4.26811">
        <ele>644.287</ele>
        <time>2018-11-21T13:56:43Z</time>
      </trkpt>
      <trkpt lat="45.8427" lon="4.26814">
        <ele>644.632</ele>
        <time>2018-11-21T13:56:49Z</time>
      </trkpt>
      <trkpt lat="45.84279" lon="4.26815">
        <ele>644.766</ele>
        <time>2018-11-21T13:56:55Z</time>
      </trkpt>
      <trkpt lat="45.84286" lon="4.26814">
        <ele>644.3</ele>
        <time>2018-11-21T13:57:01Z</time>
      </trkpt>
      <trkpt lat="45.84293" lon="4.26813">
        <ele>644.251</ele>
        <time>2018-11-21T13:57:06Z</time>
      </trkpt>
      <trkpt lat="45.843" lon="4.26807">
        <ele>644.042</ele>
        <time>2018-11-21T13:57:12Z</time>
      </trkpt>
      <trkpt lat="45.84306" lon="4.268">
        <ele>643.953</ele>
        <time>2018-11-21T13:57:18Z</time>
      </trkpt>
      <trkpt lat="45.84311" lon="4.26791">
        <ele>644.419</ele>
        <time>2018-11-21T13:57:24Z</time>
      </trkpt>
      <trkpt lat="45.84316" lon="4.26784">
        <ele>644.392</ele>
        <time>2018-11-21T13:57:29Z</time>
      </trkpt>
      <trkpt lat="45.8432" lon="4.26777">
        <ele>644.456</ele>
        <time>2018-11-21T13:57:34Z</time>
      </trkpt>
      <trkpt lat="45.84324" lon="4.2677">
        <ele>645.101</ele>
        <time>2018-11-21T13:57:40Z</time>
      </trkpt>
      <trkpt lat="45.84326" lon="4.26759">
        <ele>645.786</ele>
        <time>2018-11-21T13:57:46Z</time>
      </trkpt>
      <trkpt lat="45.84328" lon="4.26749">
        <ele>646.129</ele>
        <time>2018-11-21T13:57:51Z</time>
      </trkpt>
      <trkpt lat="45.84331" lon="4.2674">
        <ele>646.834</ele>
        <time>2018-11-21T13:57:57Z</time>
      </trkpt>
      <trkpt lat="45.84333" lon="4.26731">
        <ele>647.082</ele>
        <time>2018-11-21T13:58:03Z</time>
      </trkpt>
      <trkpt lat="45.84335" lon="4.26723">
        <ele>646.746</ele>
        <time>2018-11-21T13:58:08Z</time>
      </trkpt>
      <trkpt lat="45.84337" lon="4.26716">
        <ele>646.07</ele>
        <time>2018-11-21T13:58:14Z</time>
      </trkpt>
      <trkpt lat="45.84338" lon="4.26701">
        <ele>645.505</ele>
        <time>2018-11-21T13:58:20Z</time>
      </trkpt>
      <trkpt lat="45.84338" lon="4.26692">
        <ele>644.746</ele>
        <time>2018-11-21T13:58:25Z</time>
      </trkpt>
      <trkpt lat="45.84338" lon="4.26681">
        <ele>643.981</ele>
        <time>2018-11-21T13:58:31Z</time>
      </trkpt>
      <trkpt lat="45.84336" lon="4.26667">
        <ele>643.821</ele>
        <time>2018-11-21T13:58:36Z</time>
      </trkpt>
      <trkpt lat="45.84334" lon="4.26653">
        <ele>643.863</ele>
        <time>2018-11-21T13:58:42Z</time>
      </trkpt>
      <trkpt lat="45.8433" lon="4.26644">
        <ele>644.269</ele>
        <time>2018-11-21T13:58:48Z</time>
      </trkpt>
      <trkpt lat="45.84326" lon="4.26634">
        <ele>644.636</ele>
        <time>2018-11-21T13:58:54Z</time>
      </trkpt>
      <trkpt lat="45.84321" lon="4.26623">
        <ele>644.932</ele>
        <time>2018-11-21T13:59:00Z</time>
      </trkpt>
      <trkpt lat="45.84319" lon="4.26614">
        <ele>645.435</ele>
        <time>2018-11-21T13:59:05Z</time>
      </trkpt>
      <trkpt lat="45.84316" lon="4.26604">
        <ele>646.233</ele>
        <time>2018-11-21T13:59:11Z</time>
      </trkpt>
      <trkpt lat="45.84312" lon="4.26592">
        <ele>647.225</ele>
        <time>2018-11-21T13:59:17Z</time>
      </trkpt>
      <trkpt lat="45.84312" lon="4.26577">
        <ele>648.428</ele>
        <time>2018-11-21T13:59:23Z</time>
      </trkpt>
      <trkpt lat="45.8431" lon="4.26567">
        <ele>649.532</ele>
        <time>2018-11-21T13:59:28Z</time>
      </trkpt>
      <trkpt lat="45.84308" lon="4.26554">
        <ele>650.648</ele>
        <time>2018-11-21T13:59:33Z</time>
      </trkpt>
      <trkpt lat="45.84307" lon="4.26537">
        <ele>651.621</ele>
        <time>2018-11-21T13:59:39Z</time>
      </trkpt>
      <trkpt lat="45.84308" lon="4.26523">
        <ele>652.544</ele>
        <time>2018-11-21T13:59:45Z</time>
      </trkpt>
      <trkpt lat="45.84309" lon="4.26512">
        <ele>653.418</ele>
        <time>2018-11-21T13:59:51Z</time>
      </trkpt>
      <trkpt lat="45.84311" lon="4.26502">
        <ele>654.103</ele>
        <time>2018-11-21T13:59:57Z</time>
      </trkpt>
      <trkpt lat="45.84312" lon="4.26497">
        <ele>654.828</ele>
        <time>2018-11-21T14:00:03Z</time>
      </trkpt>
      <trkpt lat="45.84315" lon="4.26488">
        <ele>655.773</ele>
        <time>2018-11-21T14:00:09Z</time>
      </trkpt>
      <trkpt lat="45.84315" lon="4.26479">
        <ele>656.379</ele>
        <time>2018-11-21T14:00:15Z</time>
      </trkpt>
      <trkpt lat="45.84315" lon="4.26475">
        <ele>656.08</ele>
        <time>2018-11-21T14:00:20Z</time>
      </trkpt>
      <trkpt lat="45.84314" lon="4.26474">
        <ele>655.419</ele>
        <time>2018-11-21T14:00:26Z</time>
      </trkpt>
      <trkpt lat="45.84313" lon="4.26471">
        <ele>655.296</ele>
        <time>2018-11-21T14:00:31Z</time>
      </trkpt>
      <trkpt lat="45.84316" lon="4.26462">
        <ele>655.388</ele>
        <time>2018-11-21T14:00:36Z</time>
      </trkpt>
      <trkpt lat="45.84325" lon="4.26458">
        <ele>655.167</ele>
        <time>2018-11-21T14:00:42Z</time>
      </trkpt>
      <trkpt lat="45.84329" lon="4.26452">
        <ele>655.318</ele>
        <time>2018-11-21T14:00:47Z</time>
      </trkpt>
      <trkpt lat="45.84333" lon="4.26444">
        <ele>655.074</ele>
        <time>2018-11-21T14:00:53Z</time>
      </trkpt>
      <trkpt lat="45.84331" lon="4.26436">
        <ele>655.358</ele>
        <time>2018-11-21T14:00:58Z</time>
      </trkpt>
      <trkpt lat="45.84327" lon="4.26424">
        <ele>655.766</ele>
        <time>2018-11-21T14:01:04Z</time>
      </trkpt>
      <trkpt lat="45.84324" lon="4.26415">
        <ele>655.767</ele>
        <time>2018-11-21T14:01:09Z</time>
      </trkpt>
      <trkpt lat="45.8432" lon="4.26408">
        <ele>655.92</ele>
        <time>2018-11-21T14:01:14Z</time>
      </trkpt>
      <trkpt lat="45.84315" lon="4.26398">
        <ele>656.011</ele>
        <time>2018-11-21T14:01:20Z</time>
      </trkpt>
      <trkpt lat="45.84312" lon="4.26389">
        <ele>655.67</ele>
        <time>2018-11-21T14:01:26Z</time>
      </trkpt>
      <trkpt lat="45.84307" lon="4.2638">
        <ele>655.576</ele>
        <time>2018-11-21T14:01:32Z</time>
      </trkpt>
      <trkpt lat="45.84302" lon="4.26368">
        <ele>656.589</ele>
        <time>2018-11-21T14:01:38Z</time>
      </trkpt>
      <trkpt lat="45.84298" lon="4.26358">
        <ele>657.715</ele>
        <time>2018-11-21T14:01:44Z</time>
      </trkpt>
      <trkpt lat="45.84295" lon="4.26349">
        <ele>658.51</ele>
        <time>2018-11-21T14:01:50Z</time>
      </trkpt>
      <trkpt lat="45.84291" lon="4.26341">
        <ele>659.082</ele>
        <time>2018-11-21T14:01:55Z</time>
      </trkpt>
      <trkpt lat="45.84288" lon="4.26331">
        <ele>659.563</ele>
        <time>2018-11-21T14:02:01Z</time>
      </trkpt>
      <trkpt lat="45.84287" lon="4.26323">
        <ele>660.146</ele>
        <time>2018-11-21T14:02:07Z</time>
      </trkpt>
      <trkpt lat="45.84285" lon="4.26314">
        <ele>660.898</ele>
        <time>2018-11-21T14:02:12Z</time>
      </trkpt>
      <trkpt lat="45.84282" lon="4.26302">
        <ele>661.716</ele>
        <time>2018-11-21T14:02:18Z</time>
      </trkpt>
      <trkpt lat="45.84281" lon="4.26292">
        <ele>662.231</ele>
        <time>2018-11-21T14:02:23Z</time>
      </trkpt>
      <trkpt lat="45.84278" lon="4.26281">
        <ele>663.406</ele>
        <time>2018-11-21T14:02:29Z</time>
      </trkpt>
      <trkpt lat="45.84277" lon="4.2627">
        <ele>663.906</ele>
        <time>2018-11-21T14:02:35Z</time>
      </trkpt>
      <trkpt lat="45.84276" lon="4.2626">
        <ele>664.117</ele>
        <time>2018-11-21T14:02:41Z</time>
      </trkpt>
      <trkpt lat="45.84275" lon="4.26252">
        <ele>664.652</ele>
        <time>2018-11-21T14:02:46Z</time>
      </trkpt>
      <trkpt lat="45.84271" lon="4.26242">
        <ele>665.524</ele>
        <time>2018-11-21T14:02:52Z</time>
      </trkpt>
      <trkpt lat="45.8427" lon="4.2623">
        <ele>666.142</ele>
        <time>2018-11-21T14:02:58Z</time>
      </trkpt>
      <trkpt lat="45.8427" lon="4.26222">
        <ele>666.935</ele>
        <time>2018-11-21T14:03:04Z</time>
      </trkpt>
      <trkpt lat="45.84268" lon="4.26214">
        <ele>667.512</ele>
        <time>2018-11-21T14:03:09Z</time>
      </trkpt>
      <trkpt lat="45.84266" lon="4.26205">
        <ele>667.747</ele>
        <time>2018-11-21T14:03:15Z</time>
      </trkpt>
      <trkpt lat="45.84264" lon="4.26199">
        <ele>667.615</ele>
        <time>2018-11-21T14:03:20Z</time>
      </trkpt>
      <trkpt lat="45.84261" lon="4.26189">
        <ele>667.897</ele>
        <time>2018-11-21T14:03:26Z</time>
      </trkpt>
      <trkpt lat="45.84259" lon="4.26178">
        <ele>668.345</ele>
        <time>2018-11-21T14:03:32Z</time>
      </trkpt>
      <trkpt lat="45.84256" lon="4.26172">
        <ele>668.334</ele>
        <time>2018-11-21T14:03:37Z</time>
      </trkpt>
      <trkpt lat="45.84254" lon="4.26164">
        <ele>668.427</ele>
        <time>2018-11-21T14:03:43Z</time>
      </trkpt>
      <trkpt lat="45.84253" lon="4.26156">
        <ele>668.523</ele>
        <time>2018-11-21T14:03:48Z</time>
      </trkpt>
      <trkpt lat="45.8425" lon="4.26145">
        <ele>668.603</ele>
        <time>2018-11-21T14:03:54Z</time>
      </trkpt>
      <trkpt lat="45.84247" lon="4.26136">
        <ele>669.384</ele>
        <time>2018-11-21T14:04:00Z</time>
      </trkpt>
      <trkpt lat="45.84245" lon="4.26123">
        <ele>669.804</ele>
        <time>2018-11-21T14:04:06Z</time>
      </trkpt>
      <trkpt lat="45.84243" lon="4.26112">
        <ele>670.533</ele>
        <time>2018-11-21T14:04:12Z</time>
      </trkpt>
      <trkpt lat="45.84241" lon="4.26104">
        <ele>671.427</ele>
        <time>2018-11-21T14:04:18Z</time>
      </trkpt>
      <trkpt lat="45.8424" lon="4.26094">
        <ele>672.258</ele>
        <time>2018-11-21T14:04:24Z</time>
      </trkpt>
      <trkpt lat="45.84237" lon="4.26083">
        <ele>672.682</ele>
        <time>2018-11-21T14:04:30Z</time>
      </trkpt>
      <trkpt lat="45.84235" lon="4.26073">
        <ele>673.305</ele>
        <time>2018-11-21T14:04:36Z</time>
      </trkpt>
      <trkpt lat="45.84233" lon="4.26061">
        <ele>674.126</ele>
        <time>2018-11-21T14:04:42Z</time>
      </trkpt>
      <trkpt lat="45.84229" lon="4.26049">
        <ele>674.619</ele>
        <time>2018-11-21T14:04:48Z</time>
      </trkpt>
      <trkpt lat="45.84226" lon="4.26037">
        <ele>675.302</ele>
        <time>2018-11-21T14:04:54Z</time>
      </trkpt>
      <trkpt lat="45.84223" lon="4.26027">
        <ele>675.925</ele>
        <time>2018-11-21T14:04:59Z</time>
      </trkpt>
      <trkpt lat="45.8422" lon="4.26019">
        <ele>676.086</ele>
        <time>2018-11-21T14:05:04Z</time>
      </trkpt>
      <trkpt lat="45.84215" lon="4.26008">
        <ele>676.326</ele>
        <time>2018-11-21T14:05:10Z</time>
      </trkpt>
      <trkpt lat="45.84211" lon="4.26">
        <ele>676.717</ele>
        <time>2018-11-21T14:05:15Z</time>
      </trkpt>
      <trkpt lat="45.84206" lon="4.25994">
        <ele>677.032</ele>
        <time>2018-11-21T14:05:20Z</time>
      </trkpt>
      <trkpt lat="45.84201" lon="4.25984">
        <ele>676.668</ele>
        <time>2018-11-21T14:05:26Z</time>
      </trkpt>
      <trkpt lat="45.84197" lon="4.25976">
        <ele>676.223</ele>
        <time>2018-11-21T14:05:31Z</time>
      </trkpt>
      <trkpt lat="45.84191" lon="4.25967">
        <ele>676.231</ele>
        <time>2018-11-21T14:05:37Z</time>
      </trkpt>
      <trkpt lat="45.84187" lon="4.25958">
        <ele>676.681</ele>
        <time>2018-11-21T14:05:42Z</time>
      </trkpt>
      <trkpt lat="45.84182" lon="4.25948">
        <ele>677.377</ele>
        <time>2018-11-21T14:05:48Z</time>
      </trkpt>
      <trkpt lat="45.84178" lon="4.25941">
        <ele>677.719</ele>
        <time>2018-11-21T14:05:53Z</time>
      </trkpt>
      <trkpt lat="45.84172" lon="4.25932">
        <ele>677.673</ele>
        <time>2018-11-21T14:05:59Z</time>
      </trkpt>
      <trkpt lat="45.84167" lon="4.25923">
        <ele>677.621</ele>
        <time>2018-11-21T14:06:05Z</time>
      </trkpt>
      <trkpt lat="45.84162" lon="4.25918">
        <ele>677.739</ele>
        <time>2018-11-21T14:06:10Z</time>
      </trkpt>
      <trkpt lat="45.84155" lon="4.25912">
        <ele>678.128</ele>
        <time>2018-11-21T14:06:16Z</time>
      </trkpt>
      <trkpt lat="45.84148" lon="4.25905">
        <ele>678.454</ele>
        <time>2018-11-21T14:06:22Z</time>
      </trkpt>
      <trkpt lat="45.84142" lon="4.259">
        <ele>678.504</ele>
        <time>2018-11-21T14:06:28Z</time>
      </trkpt>
      <trkpt lat="45.84134" lon="4.25894">
        <ele>678.097</ele>
        <time>2018-11-21T14:06:34Z</time>
      </trkpt>
      <trkpt lat="45.84128" lon="4.2589">
        <ele>677.869</ele>
        <time>2018-11-21T14:06:39Z</time>
      </trkpt>
      <trkpt lat="45.84122" lon="4.25883">
        <ele>677.684</ele>
        <time>2018-11-21T14:06:45Z</time>
      </trkpt>
      <trkpt lat="45.84116" lon="4.25875">
        <ele>677.11</ele>
        <time>2018-11-21T14:06:51Z</time>
      </trkpt>
      <trkpt lat="45.84111" lon="4.25867">
        <ele>676.939</ele>
        <time>2018-11-21T14:06:56Z</time>
      </trkpt>
      <trkpt lat="45.84108" lon="4.25857">
        <ele>676.442</ele>
        <time>2018-11-21T14:07:02Z</time>
      </trkpt>
      <trkpt lat="45.84104" lon="4.25847">
        <ele>676.092</ele>
        <time>2018-11-21T14:07:07Z</time>
      </trkpt>
      <trkpt lat="45.84101" lon="4.25833">
        <ele>675.78</ele>
        <time>2018-11-21T14:07:13Z</time>
      </trkpt>
      <trkpt lat="45.84097" lon="4.25824">
        <ele>675.522</ele>
        <time>2018-11-21T14:07:18Z</time>
      </trkpt>
      <trkpt lat="45.84094" lon="4.25812">
        <ele>674.784</ele>
        <time>2018-11-21T14:07:24Z</time>
      </trkpt>
      <trkpt lat="45.84092" lon="4.25801">
        <ele>674.714</ele>
        <time>2018-11-21T14:07:30Z</time>
      </trkpt>
      <trkpt lat="45.84092" lon="4.25792">
        <ele>674.486</ele>
        <time>2018-11-21T14:07:35Z</time>
      </trkpt>
      <trkpt lat="45.8409" lon="4.2578">
        <ele>674.372</ele>
        <time>2018-11-21T14:07:40Z</time>
      </trkpt>
      <trkpt lat="45.8409" lon="4.25767">
        <ele>674.767</ele>
        <time>2018-11-21T14:07:46Z</time>
      </trkpt>
      <trkpt lat="45.84089" lon="4.25758">
        <ele>674.602</ele>
        <time>2018-11-21T14:07:51Z</time>
      </trkpt>
      <trkpt lat="45.8409" lon="4.25746">
        <ele>674.122</ele>
        <time>2018-11-21T14:07:57Z</time>
      </trkpt>
      <trkpt lat="45.8409" lon="4.25738">
        <ele>673.956</ele>
        <time>2018-11-21T14:08:02Z</time>
      </trkpt>
      <trkpt lat="45.84091" lon="4.25729">
        <ele>673.841</ele>
        <time>2018-11-21T14:08:07Z</time>
      </trkpt>
      <trkpt lat="45.84093" lon="4.2572">
        <ele>673.496</ele>
        <time>2018-11-21T14:08:12Z</time>
      </trkpt>
      <trkpt lat="45.84096" lon="4.2571">
        <ele>673.057</ele>
        <time>2018-11-21T14:08:17Z</time>
      </trkpt>
      <trkpt lat="45.84098" lon="4.25699">
        <ele>672.479</ele>
        <time>2018-11-21T14:08:22Z</time>
      </trkpt>
      <trkpt lat="45.84101" lon="4.25689">
        <ele>671.437</ele>
        <time>2018-11-21T14:08:27Z</time>
      </trkpt>
      <trkpt lat="45.84103" lon="4.25678">
        <ele>670.195</ele>
        <time>2018-11-21T14:08:33Z</time>
      </trkpt>
      <trkpt lat="45.84105" lon="4.25669">
        <ele>669.024</ele>
        <time>2018-11-21T14:08:38Z</time>
      </trkpt>
      <trkpt lat="45.84108" lon="4.25659">
        <ele>668.237</ele>
        <time>2018-11-21T14:08:44Z</time>
      </trkpt>
      <trkpt lat="45.84112" lon="4.25649">
        <ele>667.658</ele>
        <time>2018-11-21T14:08:50Z</time>
      </trkpt>
      <trkpt lat="45.84114" lon="4.25642">
        <ele>666.898</ele>
        <time>2018-11-21T14:08:55Z</time>
      </trkpt>
      <trkpt lat="45.84115" lon="4.25634">
        <ele>666.051</ele>
        <time>2018-11-21T14:09:00Z</time>
      </trkpt>
      <trkpt lat="45.84116" lon="4.25624">
        <ele>665.159</ele>
        <time>2018-11-21T14:09:06Z</time>
      </trkpt>
      <trkpt lat="45.84118" lon="4.25611">
        <ele>663.751</ele>
        <time>2018-11-21T14:09:12Z</time>
      </trkpt>
      <trkpt lat="45.84119" lon="4.25599">
        <ele>662.632</ele>
        <time>2018-11-21T14:09:18Z</time>
      </trkpt>
      <trkpt lat="45.84116" lon="4.25588">
        <ele>661.466</ele>
        <time>2018-11-21T14:09:24Z</time>
      </trkpt>
      <trkpt lat="45.84112" lon="4.2558">
        <ele>660.326</ele>
        <time>2018-11-21T14:09:29Z</time>
      </trkpt>
      <trkpt lat="45.84109" lon="4.25568">
        <ele>658.995</ele>
        <time>2018-11-21T14:09:35Z</time>
      </trkpt>
      <trkpt lat="45.84105" lon="4.25558">
        <ele>657.956</ele>
        <time>2018-11-21T14:09:40Z</time>
      </trkpt>
      <trkpt lat="45.84103" lon="4.25551">
        <ele>656.754</ele>
        <time>2018-11-21T14:09:45Z</time>
      </trkpt>
      <trkpt lat="45.84098" lon="4.25545">
        <ele>655.765</ele>
        <time>2018-11-21T14:09:51Z</time>
      </trkpt>
      <trkpt lat="45.84092" lon="4.25537">
        <ele>654.979</ele>
        <time>2018-11-21T14:09:56Z</time>
      </trkpt>
      <trkpt lat="45.84084" lon="4.2553">
        <ele>653.804</ele>
        <time>2018-11-21T14:10:02Z</time>
      </trkpt>
      <trkpt lat="45.84079" lon="4.25521">
        <ele>652.837</ele>
        <time>2018-11-21T14:10:08Z</time>
      </trkpt>
      <trkpt lat="45.84076" lon="4.25514">
        <ele>652.291</ele>
        <time>2018-11-21T14:10:13Z</time>
      </trkpt>
      <trkpt lat="45.84072" lon="4.25506">
        <ele>651.414</ele>
        <time>2018-11-21T14:10:19Z</time>
      </trkpt>
      <trkpt lat="45.84068" lon="4.25497">
        <ele>650.616</ele>
        <time>2018-11-21T14:10:24Z</time>
      </trkpt>
      <trkpt lat="45.84064" lon="4.25487">
        <ele>650.08</ele>
        <time>2018-11-21T14:10:30Z</time>
      </trkpt>
      <trkpt lat="45.84058" lon="4.25477">
        <ele>649.184</ele>
        <time>2018-11-21T14:10:36Z</time>
      </trkpt>
      <trkpt lat="45.84055" lon="4.25469">
        <ele>648.595</ele>
        <time>2018-11-21T14:10:41Z</time>
      </trkpt>
      <trkpt lat="45.8405" lon="4.2546">
        <ele>647.981</ele>
        <time>2018-11-21T14:10:47Z</time>
      </trkpt>
      <trkpt lat="45.84044" lon="4.2545">
        <ele>647.252</ele>
        <time>2018-11-21T14:10:53Z</time>
      </trkpt>
      <trkpt lat="45.84038" lon="4.25442">
        <ele>646.347</ele>
        <time>2018-11-21T14:10:59Z</time>
      </trkpt>
      <trkpt lat="45.84032" lon="4.25433">
        <ele>645.299</ele>
        <time>2018-11-21T14:11:05Z</time>
      </trkpt>
      <trkpt lat="45.84028" lon="4.25427">
        <ele>644.171</ele>
        <time>2018-11-21T14:11:11Z</time>
      </trkpt>
      <trkpt lat="45.84021" lon="4.25419">
        <ele>642.96</ele>
        <time>2018-11-21T14:11:17Z</time>
      </trkpt>
      <trkpt lat="45.84015" lon="4.2541">
        <ele>641.872</ele>
        <time>2018-11-21T14:11:22Z</time>
      </trkpt>
      <trkpt lat="45.84009" lon="4.25402">
        <ele>641.172</ele>
        <time>2018-11-21T14:11:28Z</time>
      </trkpt>
      <trkpt lat="45.84003" lon="4.25395">
        <ele>640.317</ele>
        <time>2018-11-21T14:11:34Z</time>
      </trkpt>
      <trkpt lat="45.83999" lon="4.25386">
        <ele>639.493</ele>
        <time>2018-11-21T14:11:39Z</time>
      </trkpt>
      <trkpt lat="45.83995" lon="4.25376">
        <ele>638.136</ele>
        <time>2018-11-21T14:11:45Z</time>
      </trkpt>
      <trkpt lat="45.83989" lon="4.25368">
        <ele>637.093</ele>
        <time>2018-11-21T14:11:51Z</time>
      </trkpt>
      <trkpt lat="45.83984" lon="4.25358">
        <ele>636.191</ele>
        <time>2018-11-21T14:11:56Z</time>
      </trkpt>
      <trkpt lat="45.8398" lon="4.2535">
        <ele>635.448</ele>
        <time>2018-11-21T14:12:02Z</time>
      </trkpt>
      <trkpt lat="45.83976" lon="4.25344">
        <ele>634.559</ele>
        <time>2018-11-21T14:12:07Z</time>
      </trkpt>
      <trkpt lat="45.83972" lon="4.25335">
        <ele>633.403</ele>
        <time>2018-11-21T14:12:13Z</time>
      </trkpt>
      <trkpt lat="45.83967" lon="4.25322">
        <ele>632.726</ele>
        <time>2018-11-21T14:12:19Z</time>
      </trkpt>
      <trkpt lat="45.83962" lon="4.25311">
        <ele>632.388</ele>
        <time>2018-11-21T14:12:25Z</time>
      </trkpt>
      <trkpt lat="45.8396" lon="4.25301">
        <ele>631.751</ele>
        <time>2018-11-21T14:12:30Z</time>
      </trkpt>
      <trkpt lat="45.83957" lon="4.25291">
        <ele>630.911</ele>
        <time>2018-11-21T14:12:36Z</time>
      </trkpt>
      <trkpt lat="45.83952" lon="4.25282">
        <ele>630.132</ele>
        <time>2018-11-21T14:12:41Z</time>
      </trkpt>
      <trkpt lat="45.83948" lon="4.25272">
        <ele>629.403</ele>
        <time>2018-11-21T14:12:47Z</time>
      </trkpt>
      <trkpt lat="45.83944" lon="4.25259">
        <ele>629.227</ele>
        <time>2018-11-21T14:12:53Z</time>
      </trkpt>
      <trkpt lat="45.83941" lon="4.25249">
        <ele>629.1</ele>
        <time>2018-11-21T14:12:59Z</time>
      </trkpt>
      <trkpt lat="45.8394" lon="4.25237">
        <ele>628.935</ele>
        <time>2018-11-21T14:13:05Z</time>
      </trkpt>
      <trkpt lat="45.83939" lon="4.25227">
        <ele>628.642</ele>
        <time>2018-11-21T14:13:11Z</time>
      </trkpt>
      <trkpt lat="45.83937" lon="4.25213">
        <ele>627.821</ele>
        <time>2018-11-21T14:13:17Z</time>
      </trkpt>
      <trkpt lat="45.83936" lon="4.25201">
        <ele>626.79</ele>
        <time>2018-11-21T14:13:23Z</time>
      </trkpt>
      <trkpt lat="45.83936" lon="4.25187">
        <ele>626.156</ele>
        <time>2018-11-21T14:13:29Z</time>
      </trkpt>
      <trkpt lat="45.83935" lon="4.25178">
        <ele>626.486</ele>
        <time>2018-11-21T14:13:35Z</time>
      </trkpt>
      <trkpt lat="45.83936" lon="4.25166">
        <ele>626.611</ele>
        <time>2018-11-21T14:13:40Z</time>
      </trkpt>
      <trkpt lat="45.83935" lon="4.25154">
        <ele>627.159</ele>
        <time>2018-11-21T14:13:46Z</time>
      </trkpt>
      <trkpt lat="45.83934" lon="4.25144">
        <ele>627.401</ele>
        <time>2018-11-21T14:13:51Z</time>
      </trkpt>
      <trkpt lat="45.83935" lon="4.25132">
        <ele>627.734</ele>
        <time>2018-11-21T14:13:57Z</time>
      </trkpt>
      <trkpt lat="45.83934" lon="4.25122">
        <ele>627.838</ele>
        <time>2018-11-21T14:14:03Z</time>
      </trkpt>
      <trkpt lat="45.83932" lon="4.2511">
        <ele>627.857</ele>
        <time>2018-11-21T14:14:08Z</time>
      </trkpt>
      <trkpt lat="45.83927" lon="4.25099">
        <ele>628.026</ele>
        <time>2018-11-21T14:14:13Z</time>
      </trkpt>
      <trkpt lat="45.83923" lon="4.25091">
        <ele>627.73</ele>
        <time>2018-11-21T14:14:19Z</time>
      </trkpt>
      <trkpt lat="45.83918" lon="4.25083">
        <ele>627.275</ele>
        <time>2018-11-21T14:14:25Z</time>
      </trkpt>
      <trkpt lat="45.83909" lon="4.25076">
        <ele>626.483</ele>
        <time>2018-11-21T14:14:31Z</time>
      </trkpt>
      <trkpt lat="45.83905" lon="4.25072">
        <ele>625.915</ele>
        <time>2018-11-21T14:14:37Z</time>
      </trkpt>
      <trkpt lat="45.83897" lon="4.25063">
        <ele>625.909</ele>
        <time>2018-11-21T14:14:43Z</time>
      </trkpt>
      <trkpt lat="45.8389" lon="4.25056">
        <ele>626.004</ele>
        <time>2018-11-21T14:14:48Z</time>
      </trkpt>
      <trkpt lat="45.83883" lon="4.25048">
        <ele>625.913</ele>
        <time>2018-11-21T14:14:54Z</time>
      </trkpt>
      <trkpt lat="45.83877" lon="4.25041">
        <ele>625.953</ele>
        <time>2018-11-21T14:15:00Z</time>
      </trkpt>
      <trkpt lat="45.83871" lon="4.25033">
        <ele>626.179</ele>
        <time>2018-11-21T14:15:06Z</time>
      </trkpt>
      <trkpt lat="45.83863" lon="4.25026">
        <ele>626.175</ele>
        <time>2018-11-21T14:15:12Z</time>
      </trkpt>
      <trkpt lat="45.83858" lon="4.2502">
        <ele>626.186</ele>
        <time>2018-11-21T14:15:17Z</time>
      </trkpt>
      <trkpt lat="45.83852" lon="4.25012">
        <ele>626.161</ele>
        <time>2018-11-21T14:15:23Z</time>
      </trkpt>
      <trkpt lat="45.83846" lon="4.25002">
        <ele>626.163</ele>
        <time>2018-11-21T14:15:29Z</time>
      </trkpt>
      <trkpt lat="45.83842" lon="4.24992">
        <ele>626.325</ele>
        <time>2018-11-21T14:15:35Z</time>
      </trkpt>
      <trkpt lat="45.83837" lon="4.24981">
        <ele>626.65</ele>
        <time>2018-11-21T14:15:41Z</time>
      </trkpt>
      <trkpt lat="45.83832" lon="4.24974">
        <ele>626.725</ele>
        <time>2018-11-21T14:15:46Z</time>
      </trkpt>
      <trkpt lat="45.83828" lon="4.24964">
        <ele>626.709</ele>
        <time>2018-11-21T14:15:52Z</time>
      </trkpt>
      <trkpt lat="45.83825" lon="4.24954">
        <ele>626.192</ele>
        <time>2018-11-21T14:15:57Z</time>
      </trkpt>
      <trkpt lat="45.83822" lon="4.24942">
        <ele>625.073</ele>
        <time>2018-11-21T14:16:03Z</time>
      </trkpt>
      <trkpt lat="45.8382" lon="4.24933">
        <ele>624.509</ele>
        <time>2018-11-21T14:16:08Z</time>
      </trkpt>
      <trkpt lat="45.83818" lon="4.24926">
        <ele>624.106</ele>
        <time>2018-11-21T14:16:13Z</time>
      </trkpt>
      <trkpt lat="45.83814" lon="4.24914">
        <ele>623.047</ele>
        <time>2018-11-21T14:16:19Z</time>
      </trkpt>
      <trkpt lat="45.83811" lon="4.24904">
        <ele>621.814</ele>
        <time>2018-11-21T14:16:24Z</time>
      </trkpt>
      <trkpt lat="45.8381" lon="4.24896">
        <ele>620.789</ele>
        <time>2018-11-21T14:16:30Z</time>
      </trkpt>
      <trkpt lat="45.83807" lon="4.24885">
        <ele>619.807</ele>
        <time>2018-11-21T14:16:36Z</time>
      </trkpt>
      <trkpt lat="45.83807" lon="4.24876">
        <ele>618.878</ele>
        <time>2018-11-21T14:16:41Z</time>
      </trkpt>
      <trkpt lat="45.83804" lon="4.24865">
        <ele>617.909</ele>
        <time>2018-11-21T14:16:46Z</time>
      </trkpt>
      <trkpt lat="45.838" lon="4.24854">
        <ele>617.155</ele>
        <time>2018-11-21T14:16:52Z</time>
      </trkpt>
      <trkpt lat="45.83797" lon="4.24845">
        <ele>616.782</ele>
        <time>2018-11-21T14:16:57Z</time>
      </trkpt>
      <trkpt lat="45.83792" lon="4.24834">
        <ele>616.11</ele>
        <time>2018-11-21T14:17:03Z</time>
      </trkpt>
      <trkpt lat="45.83788" lon="4.24824">
        <ele>615.436</ele>
        <time>2018-11-21T14:17:08Z</time>
      </trkpt>
      <trkpt lat="45.83784" lon="4.24815">
        <ele>614.742</ele>
        <time>2018-11-21T14:17:14Z</time>
      </trkpt>
      <trkpt lat="45.8378" lon="4.24806">
        <ele>614.119</ele>
        <time>2018-11-21T14:17:20Z</time>
      </trkpt>
      <trkpt lat="45.83777" lon="4.24795">
        <ele>613.856</ele>
        <time>2018-11-21T14:17:26Z</time>
      </trkpt>
      <trkpt lat="45.83773" lon="4.24783">
        <ele>613.575</ele>
        <time>2018-11-21T14:17:32Z</time>
      </trkpt>
      <trkpt lat="45.83769" lon="4.24772">
        <ele>613.454</ele>
        <time>2018-11-21T14:17:38Z</time>
      </trkpt>
      <trkpt lat="45.83765" lon="4.24762">
        <ele>612.566</ele>
        <time>2018-11-21T14:17:44Z</time>
      </trkpt>
      <trkpt lat="45.83761" lon="4.24752">
        <ele>611.715</ele>
        <time>2018-11-21T14:17:50Z</time>
      </trkpt>
      <trkpt lat="45.83759" lon="4.24743">
        <ele>611.071</ele>
        <time>2018-11-21T14:17:55Z</time>
      </trkpt>
      <trkpt lat="45.83755" lon="4.2473">
        <ele>610.38</ele>
        <time>2018-11-21T14:18:01Z</time>
      </trkpt>
      <trkpt lat="45.8375" lon="4.24719">
        <ele>610.127</ele>
        <time>2018-11-21T14:18:07Z</time>
      </trkpt>
      <trkpt lat="45.83747" lon="4.2471">
        <ele>609.544</ele>
        <time>2018-11-21T14:18:13Z</time>
      </trkpt>
      <trkpt lat="45.83743" lon="4.24697">
        <ele>608.915</ele>
        <time>2018-11-21T14:18:19Z</time>
      </trkpt>
      <trkpt lat="45.8374" lon="4.24687">
        <ele>608.938</ele>
        <time>2018-11-21T14:18:24Z</time>
      </trkpt>
      <trkpt lat="45.83738" lon="4.24675">
        <ele>608.467</ele>
        <time>2018-11-21T14:18:30Z</time>
      </trkpt>
      <trkpt lat="45.83736" lon="4.24666">
        <ele>608.05</ele>
        <time>2018-11-21T14:18:36Z</time>
      </trkpt>
      <trkpt lat="45.83733" lon="4.24656">
        <ele>607.646</ele>
        <time>2018-11-21T14:18:42Z</time>
      </trkpt>
      <trkpt lat="45.83731" lon="4.24641">
        <ele>606.978</ele>
        <time>2018-11-21T14:18:48Z</time>
      </trkpt>
      <trkpt lat="45.8373" lon="4.24629">
        <ele>606.089</ele>
        <time>2018-11-21T14:18:54Z</time>
      </trkpt>
      <trkpt lat="45.83729" lon="4.24619">
        <ele>605.466</ele>
        <time>2018-11-21T14:18:59Z</time>
      </trkpt>
      <trkpt lat="45.83728" lon="4.24605">
        <ele>604.459</ele>
        <time>2018-11-21T14:19:05Z</time>
      </trkpt>
      <trkpt lat="45.83727" lon="4.24595">
        <ele>603.777</ele>
        <time>2018-11-21T14:19:10Z</time>
      </trkpt>
      <trkpt lat="45.8373" lon="4.24581">
        <ele>603.501</ele>
        <time>2018-11-21T14:19:16Z</time>
      </trkpt>
      <trkpt lat="45.8373" lon="4.24568">
        <ele>602.95</ele>
        <time>2018-11-21T14:19:22Z</time>
      </trkpt>
      <trkpt lat="45.83732" lon="4.24557">
        <ele>602.086</ele>
        <time>2018-11-21T14:19:28Z</time>
      </trkpt>
      <trkpt lat="45.83735" lon="4.24543">
        <ele>601.381</ele>
        <time>2018-11-21T14:19:34Z</time>
      </trkpt>
      <trkpt lat="45.83736" lon="4.24535">
        <ele>601.14</ele>
        <time>2018-11-21T14:19:39Z</time>
      </trkpt>
      <trkpt lat="45.83739" lon="4.24523">
        <ele>600.559</ele>
        <time>2018-11-21T14:19:45Z</time>
      </trkpt>
      <trkpt lat="45.83743" lon="4.24516">
        <ele>600.082</ele>
        <time>2018-11-21T14:19:50Z</time>
      </trkpt>
      <trkpt lat="45.83745" lon="4.24505">
        <ele>599.653</ele>
        <time>2018-11-21T14:19:56Z</time>
      </trkpt>
      <trkpt lat="45.83744" lon="4.24496">
        <ele>599.208</ele>
        <time>2018-11-21T14:20:02Z</time>
      </trkpt>
      <trkpt lat="45.83741" lon="4.24485">
        <ele>598.777</ele>
        <time>2018-11-21T14:20:08Z</time>
      </trkpt>
      <trkpt lat="45.8374" lon="4.24475">
        <ele>598.25</ele>
        <time>2018-11-21T14:20:13Z</time>
      </trkpt>
      <trkpt lat="45.83739" lon="4.24463">
        <ele>597.678</ele>
        <time>2018-11-21T14:20:19Z</time>
      </trkpt>
      <trkpt lat="45.83739" lon="4.2445">
        <ele>597.408</ele>
        <time>2018-11-21T14:20:24Z</time>
      </trkpt>
      <trkpt lat="45.83739" lon="4.24437">
        <ele>596.584</ele>
        <time>2018-11-21T14:20:30Z</time>
      </trkpt>
      <trkpt lat="45.83739" lon="4.24427">
        <ele>595.761</ele>
        <time>2018-11-21T14:20:35Z</time>
      </trkpt>
      <trkpt lat="45.8374" lon="4.24416">
        <ele>594.837</ele>
        <time>2018-11-21T14:20:40Z</time>
      </trkpt>
      <trkpt lat="45.8374" lon="4.24403">
        <ele>593.891</ele>
        <time>2018-11-21T14:20:46Z</time>
      </trkpt>
      <trkpt lat="45.83739" lon="4.24392">
        <ele>593.333</ele>
        <time>2018-11-21T14:20:52Z</time>
      </trkpt>
      <trkpt lat="45.83737" lon="4.2438">
        <ele>592.839</ele>
        <time>2018-11-21T14:20:57Z</time>
      </trkpt>
      <trkpt lat="45.83735" lon="4.24369">
        <ele>592.59</ele>
        <time>2018-11-21T14:21:02Z</time>
      </trkpt>
      <trkpt lat="45.83733" lon="4.24357">
        <ele>592.434</ele>
        <time>2018-11-21T14:21:08Z</time>
      </trkpt>
      <trkpt lat="45.83732" lon="4.24344">
        <ele>592.174</ele>
        <time>2018-11-21T14:21:13Z</time>
      </trkpt>
      <trkpt lat="45.83731" lon="4.24333">
        <ele>591.828</ele>
        <time>2018-11-21T14:21:18Z</time>
      </trkpt>
      <trkpt lat="45.8373" lon="4.24322">
        <ele>591.61</ele>
        <time>2018-11-21T14:21:23Z</time>
      </trkpt>
      <trkpt lat="45.83729" lon="4.24312">
        <ele>591.284</ele>
        <time>2018-11-21T14:21:28Z</time>
      </trkpt>
      <trkpt lat="45.83728" lon="4.24303">
        <ele>591.215</ele>
        <time>2018-11-21T14:21:33Z</time>
      </trkpt>
      <trkpt lat="45.83726" lon="4.24291">
        <ele>591.052</ele>
        <time>2018-11-21T14:21:39Z</time>
      </trkpt>
      <trkpt lat="45.83724" lon="4.24276">
        <ele>590.949</ele>
        <time>2018-11-21T14:21:45Z</time>
      </trkpt>
      <trkpt lat="45.83724" lon="4.24263">
        <ele>590.291</ele>
        <time>2018-11-21T14:21:51Z</time>
      </trkpt>
      <trkpt lat="45.83725" lon="4.24255">
        <ele>589.523</ele>
        <time>2018-11-21T14:21:56Z</time>
      </trkpt>
      <trkpt lat="45.83726" lon="4.24244">
        <ele>588.922</ele>
        <time>2018-11-21T14:22:02Z</time>
      </trkpt>
      <trkpt lat="45.83724" lon="4.2423">
        <ele>588.656</ele>
        <time>2018-11-21T14:22:08Z</time>
      </trkpt>
      <trkpt lat="45.83723" lon="4.24218">
        <ele>588.845</ele>
        <time>2018-11-21T14:22:13Z</time>
      </trkpt>
      <trkpt lat="45.83722" lon="4.24203">
        <ele>589.029</ele>
        <time>2018-11-21T14:22:19Z</time>
      </trkpt>
      <trkpt lat="45.83719" lon="4.24188">
        <ele>588.663</ele>
        <time>2018-11-21T14:22:25Z</time>
      </trkpt>
      <trkpt lat="45.83718" lon="4.24179">
        <ele>588.222</ele>
        <time>2018-11-21T14:22:30Z</time>
      </trkpt>
      <trkpt lat="45.83715" lon="4.24168">
        <ele>587.647</ele>
        <time>2018-11-21T14:22:36Z</time>
      </trkpt>
      <trkpt lat="45.83713" lon="4.24158">
        <ele>587.25</ele>
        <time>2018-11-21T14:22:41Z</time>
      </trkpt>
      <trkpt lat="45.8371" lon="4.24145">
        <ele>586.515</ele>
        <time>2018-11-21T14:22:47Z</time>
      </trkpt>
      <trkpt lat="45.83705" lon="4.24135">
        <ele>585.871</ele>
        <time>2018-11-21T14:22:53Z</time>
      </trkpt>
      <trkpt lat="45.83699" lon="4.24132">
        <ele>585.345</ele>
        <time>2018-11-21T14:22:58Z</time>
      </trkpt>
      <trkpt lat="45.83694" lon="4.24138">
        <ele>584.784</ele>
        <time>2018-11-21T14:23:04Z</time>
      </trkpt>
      <trkpt lat="45.83687" lon="4.24147">
        <ele>584.529</ele>
        <time>2018-11-21T14:23:10Z</time>
      </trkpt>
      <trkpt lat="45.8368" lon="4.24157">
        <ele>584.026</ele>
        <time>2018-11-21T14:23:15Z</time>
      </trkpt>
      <trkpt lat="45.83673" lon="4.24167">
        <ele>583.155</ele>
        <time>2018-11-21T14:23:21Z</time>
      </trkpt>
      <trkpt lat="45.83664" lon="4.24174">
        <ele>583.005</ele>
        <time>2018-11-21T14:23:27Z</time>
      </trkpt>
      <trkpt lat="45.83654" lon="4.24181">
        <ele>582.972</ele>
        <time>2018-11-21T14:23:33Z</time>
      </trkpt>
      <trkpt lat="45.83645" lon="4.24187">
        <ele>582.447</ele>
        <time>2018-11-21T14:23:38Z</time>
      </trkpt>
      <trkpt lat="45.83638" lon="4.24194">
        <ele>582.135</ele>
        <time>2018-11-21T14:23:44Z</time>
      </trkpt>
      <trkpt lat="45.83632" lon="4.24199">
        <ele>582.176</ele>
        <time>2018-11-21T14:23:49Z</time>
      </trkpt>
      <trkpt lat="45.83626" lon="4.24202">
        <ele>581.975</ele>
        <time>2018-11-21T14:23:54Z</time>
      </trkpt>
      <trkpt lat="45.83619" lon="4.24205">
        <ele>580.971</ele>
        <time>2018-11-21T14:24:00Z</time>
      </trkpt>
      <trkpt lat="45.83614" lon="4.24212">
        <ele>580.422</ele>
        <time>2018-11-21T14:24:06Z</time>
      </trkpt>
      <trkpt lat="45.83609" lon="4.24216">
        <ele>580.34</ele>
        <time>2018-11-21T14:24:11Z</time>
      </trkpt>
      <trkpt lat="45.83604" lon="4.24219">
        <ele>580.072</ele>
        <time>2018-11-21T14:24:17Z</time>
      </trkpt>
      <trkpt lat="45.83596" lon="4.24221">
        <ele>579.765</ele>
        <time>2018-11-21T14:24:22Z</time>
      </trkpt>
      <trkpt lat="45.83589" lon="4.24225">
        <ele>579.071</ele>
        <time>2018-11-21T14:24:28Z</time>
      </trkpt>
      <trkpt lat="45.83582" lon="4.2423">
        <ele>578.808</ele>
        <time>2018-11-21T14:24:33Z</time>
      </trkpt>
      <trkpt lat="45.83576" lon="4.24234">
        <ele>578.484</ele>
        <time>2018-11-21T14:24:38Z</time>
      </trkpt>
      <trkpt lat="45.83568" lon="4.24236">
        <ele>577.832</ele>
        <time>2018-11-21T14:24:44Z</time>
      </trkpt>
      <trkpt lat="45.8356" lon="4.24245">
        <ele>577.441</ele>
        <time>2018-11-21T14:24:49Z</time>
      </trkpt>
      <trkpt lat="45.83556" lon="4.2426">
        <ele>577.055</ele>
        <time>2018-11-21T14:24:54Z</time>
      </trkpt>
      <trkpt lat="45.8356" lon="4.24271">
        <ele>576.913</ele>
        <time>2018-11-21T14:25:00Z</time>
      </trkpt>
      <trkpt lat="45.83557" lon="4.24283">
        <ele>576.755</ele>
        <time>2018-11-21T14:25:05Z</time>
      </trkpt>
      <trkpt lat="45.8355" lon="4.24289">
        <ele>576.902</ele>
        <time>2018-11-21T14:25:10Z</time>
      </trkpt>
      <trkpt lat="45.83544" lon="4.24294">
        <ele>576.918</ele>
        <time>2018-11-21T14:25:16Z</time>
      </trkpt>
      <trkpt lat="45.83537" lon="4.24297">
        <ele>576.995</ele>
        <time>2018-11-21T14:25:21Z</time>
      </trkpt>
      <trkpt lat="45.83528" lon="4.24305">
        <ele>576.571</ele>
        <time>2018-11-21T14:25:27Z</time>
      </trkpt>
      <trkpt lat="45.8352" lon="4.24311">
        <ele>576.09</ele>
        <time>2018-11-21T14:25:33Z</time>
      </trkpt>
      <trkpt lat="45.83512" lon="4.24316">
        <ele>575.557</ele>
        <time>2018-11-21T14:25:39Z</time>
      </trkpt>
      <trkpt lat="45.83507" lon="4.24318">
        <ele>574.823</ele>
        <time>2018-11-21T14:25:44Z</time>
      </trkpt>
      <trkpt lat="45.835" lon="4.2432">
        <ele>573.71</ele>
        <time>2018-11-21T14:25:50Z</time>
      </trkpt>
      <trkpt lat="45.83493" lon="4.24324">
        <ele>572.855</ele>
        <time>2018-11-21T14:25:55Z</time>
      </trkpt>
      <trkpt lat="45.83484" lon="4.24332">
        <ele>572.003</ele>
        <time>2018-11-21T14:26:01Z</time>
      </trkpt>
      <trkpt lat="45.83475" lon="4.24336">
        <ele>571.315</ele>
        <time>2018-11-21T14:26:06Z</time>
      </trkpt>
      <trkpt lat="45.83466" lon="4.24343">
        <ele>570.66</ele>
        <time>2018-11-21T14:26:12Z</time>
      </trkpt>
      <trkpt lat="45.8346" lon="4.24345">
        <ele>570.164</ele>
        <time>2018-11-21T14:26:17Z</time>
      </trkpt>
      <trkpt lat="45.83452" lon="4.24351">
        <ele>569.433</ele>
        <time>2018-11-21T14:26:23Z</time>
      </trkpt>
      <trkpt lat="45.83446" lon="4.24355">
        <ele>568.39</ele>
        <time>2018-11-21T14:26:28Z</time>
      </trkpt>
      <trkpt lat="45.83439" lon="4.24355">
        <ele>567.288</ele>
        <time>2018-11-21T14:26:33Z</time>
      </trkpt>
      <trkpt lat="45.83427" lon="4.24362">
        <ele>565.449</ele>
        <time>2018-11-21T14:26:39Z</time>
      </trkpt>
      <trkpt lat="45.83419" lon="4.24367">
        <ele>563.424</ele>
        <time>2018-11-21T14:26:44Z</time>
      </trkpt>
      <trkpt lat="45.83408" lon="4.24378">
        <ele>562.99</ele>
        <time>2018-11-21T14:26:55Z</time>
      </trkpt>
      <trkpt lat="45.83402" lon="4.24386">
        <ele>563.305</ele>
        <time>2018-11-21T14:27:01Z</time>
      </trkpt>
      <trkpt lat="45.83396" lon="4.24387">
        <ele>563.134</ele>
        <time>2018-11-21T14:27:06Z</time>
      </trkpt>
      <trkpt lat="45.83387" lon="4.2438">
        <ele>562.291</ele>
        <time>2018-11-21T14:27:11Z</time>
      </trkpt>
      <trkpt lat="45.83375" lon="4.24384">
        <ele>561.52</ele>
        <time>2018-11-21T14:27:17Z</time>
      </trkpt>
      <trkpt lat="45.8337" lon="4.24385">
        <ele>560.784</ele>
        <time>2018-11-21T14:27:23Z</time>
      </trkpt>
      <trkpt lat="45.83366" lon="4.2439">
        <ele>559.644</ele>
        <time>2018-11-21T14:27:29Z</time>
      </trkpt>
      <trkpt lat="45.83362" lon="4.24393">
        <ele>559.114</ele>
        <time>2018-11-21T14:27:35Z</time>
      </trkpt>
      <trkpt lat="45.83354" lon="4.24398">
        <ele>558.542</ele>
        <time>2018-11-21T14:27:41Z</time>
      </trkpt>
      <trkpt lat="45.83352" lon="4.24398">
        <ele>558.64</ele>
        <time>2018-11-21T14:27:46Z</time>
      </trkpt>
      <trkpt lat="45.83351" lon="4.24399">
        <ele>558.685</ele>
        <time>2018-11-21T14:27:52Z</time>
      </trkpt>
      <trkpt lat="45.83338" lon="4.24399">
        <ele>558.168</ele>
        <time>2018-11-21T14:27:58Z</time>
      </trkpt>
      <trkpt lat="45.83324" lon="4.24403">
        <ele>556.859</ele>
        <time>2018-11-21T14:28:04Z</time>
      </trkpt>
      <trkpt lat="45.83317" lon="4.24409">
        <ele>555.962</ele>
        <time>2018-11-21T14:28:09Z</time>
      </trkpt>
      <trkpt lat="45.8331" lon="4.24417">
        <ele>554.641</ele>
        <time>2018-11-21T14:28:15Z</time>
      </trkpt>
      <trkpt lat="45.83306" lon="4.24424">
        <ele>552.502</ele>
        <time>2018-11-21T14:28:21Z</time>
      </trkpt>
      <trkpt lat="45.83299" lon="4.24432">
        <ele>551.096</ele>
        <time>2018-11-21T14:28:27Z</time>
      </trkpt>
      <trkpt lat="45.83288" lon="4.2444">
        <ele>550.484</ele>
        <time>2018-11-21T14:28:33Z</time>
      </trkpt>
      <trkpt lat="45.8328" lon="4.24438">
        <ele>549.847</ele>
        <time>2018-11-21T14:28:39Z</time>
      </trkpt>
      <trkpt lat="45.83273" lon="4.24436">
        <ele>549.104</ele>
        <time>2018-11-21T14:28:44Z</time>
      </trkpt>
      <trkpt lat="45.83269" lon="4.24435">
        <ele>547.917</ele>
        <time>2018-11-21T14:28:49Z</time>
      </trkpt>
      <trkpt lat="45.83262" lon="4.24426">
        <ele>546.784</ele>
        <time>2018-11-21T14:28:55Z</time>
      </trkpt>
      <trkpt lat="45.83256" lon="4.24418">
        <ele>546.765</ele>
        <time>2018-11-21T14:29:01Z</time>
      </trkpt>
      <trkpt lat="45.83251" lon="4.24413">
        <ele>546.577</ele>
        <time>2018-11-21T14:29:06Z</time>
      </trkpt>
      <trkpt lat="45.83245" lon="4.2441">
        <ele>545.695</ele>
        <time>2018-11-21T14:29:12Z</time>
      </trkpt>
      <trkpt lat="45.83237" lon="4.24403">
        <ele>544.766</ele>
        <time>2018-11-21T14:29:18Z</time>
      </trkpt>
      <trkpt lat="45.8323" lon="4.24394">
        <ele>544.39</ele>
        <time>2018-11-21T14:29:24Z</time>
      </trkpt>
      <trkpt lat="45.8322" lon="4.24386">
        <ele>544.423</ele>
        <time>2018-11-21T14:29:30Z</time>
      </trkpt>
      <trkpt lat="45.83213" lon="4.24384">
        <ele>544.106</ele>
        <time>2018-11-21T14:29:35Z</time>
      </trkpt>
      <trkpt lat="45.83209" lon="4.2438">
        <ele>543.595</ele>
        <time>2018-11-21T14:29:41Z</time>
      </trkpt>
      <trkpt lat="45.83202" lon="4.24375">
        <ele>542.84</ele>
        <time>2018-11-21T14:29:47Z</time>
      </trkpt>
      <trkpt lat="45.83195" lon="4.2437">
        <ele>541.964</ele>
        <time>2018-11-21T14:29:52Z</time>
      </trkpt>
      <trkpt lat="45.83185" lon="4.24362">
        <ele>541.836</ele>
        <time>2018-11-21T14:29:58Z</time>
      </trkpt>
      <trkpt lat="45.83177" lon="4.24357">
        <ele>542.049</ele>
        <time>2018-11-21T14:30:04Z</time>
      </trkpt>
      <trkpt lat="45.83171" lon="4.24351">
        <ele>542.199</ele>
        <time>2018-11-21T14:30:09Z</time>
      </trkpt>
      <trkpt lat="45.83164" lon="4.24345">
        <ele>543.1</ele>
        <time>2018-11-21T14:30:15Z</time>
      </trkpt>
      <trkpt lat="45.83158" lon="4.24342">
        <ele>543.494</ele>
        <time>2018-11-21T14:30:20Z</time>
      </trkpt>
      <trkpt lat="45.83149" lon="4.24336">
        <ele>543.51</ele>
        <time>2018-11-21T14:30:26Z</time>
      </trkpt>
      <trkpt lat="45.83143" lon="4.24334">
        <ele>543.542</ele>
        <time>2018-11-21T14:30:31Z</time>
      </trkpt>
      <trkpt lat="45.83136" lon="4.24328">
        <ele>543.985</ele>
        <time>2018-11-21T14:30:37Z</time>
      </trkpt>
      <trkpt lat="45.83128" lon="4.24321">
        <ele>544.676</ele>
        <time>2018-11-21T14:30:43Z</time>
      </trkpt>
      <trkpt lat="45.83118" lon="4.24317">
        <ele>544.967</ele>
        <time>2018-11-21T14:30:49Z</time>
      </trkpt>
      <trkpt lat="45.83109" lon="4.24313">
        <ele>545.3</ele>
        <time>2018-11-21T14:30:55Z</time>
      </trkpt>
      <trkpt lat="45.83102" lon="4.24307">
        <ele>545.946</ele>
        <time>2018-11-21T14:31:01Z</time>
      </trkpt>
      <trkpt lat="45.83095" lon="4.24302">
        <ele>546.625</ele>
        <time>2018-11-21T14:31:07Z</time>
      </trkpt>
      <trkpt lat="45.83086" lon="4.24296">
        <ele>546.999</ele>
        <time>2018-11-21T14:31:13Z</time>
      </trkpt>
      <trkpt lat="45.8308" lon="4.24293">
        <ele>547.344</ele>
        <time>2018-11-21T14:31:18Z</time>
      </trkpt>
      <trkpt lat="45.83074" lon="4.24288">
        <ele>547.845</ele>
        <time>2018-11-21T14:31:23Z</time>
      </trkpt>
      <trkpt lat="45.83065" lon="4.24281">
        <ele>548.43</ele>
        <time>2018-11-21T14:31:29Z</time>
      </trkpt>
      <trkpt lat="45.83058" lon="4.24278">
        <ele>549.034</ele>
        <time>2018-11-21T14:31:35Z</time>
      </trkpt>
      <trkpt lat="45.83049" lon="4.24276">
        <ele>549.416</ele>
        <time>2018-11-21T14:31:41Z</time>
      </trkpt>
      <trkpt lat="45.83042" lon="4.24275">
        <ele>549.591</ele>
        <time>2018-11-21T14:31:46Z</time>
      </trkpt>
      <trkpt lat="45.83033" lon="4.24277">
        <ele>549.365</ele>
        <time>2018-11-21T14:31:52Z</time>
      </trkpt>
      <trkpt lat="45.83027" lon="4.24281">
        <ele>549.447</ele>
        <time>2018-11-21T14:31:57Z</time>
      </trkpt>
      <trkpt lat="45.83019" lon="4.24288">
        <ele>549.967</ele>
        <time>2018-11-21T14:32:03Z</time>
      </trkpt>
      <trkpt lat="45.83014" lon="4.24295">
        <ele>550.328</ele>
        <time>2018-11-21T14:32:09Z</time>
      </trkpt>
      <trkpt lat="45.83008" lon="4.24301">
        <ele>550.551</ele>
        <time>2018-11-21T14:32:15Z</time>
      </trkpt>
      <trkpt lat="45.83003" lon="4.24307">
        <ele>550.542</ele>
        <time>2018-11-21T14:32:20Z</time>
      </trkpt>
      <trkpt lat="45.82995" lon="4.24315">
        <ele>550.767</ele>
        <time>2018-11-21T14:32:26Z</time>
      </trkpt>
      <trkpt lat="45.82988" lon="4.24322">
        <ele>551.141</ele>
        <time>2018-11-21T14:32:32Z</time>
      </trkpt>
      <trkpt lat="45.82981" lon="4.24328">
        <ele>551.265</ele>
        <time>2018-11-21T14:32:38Z</time>
      </trkpt>
      <trkpt lat="45.82972" lon="4.24332">
        <ele>550.803</ele>
        <time>2018-11-21T14:32:44Z</time>
      </trkpt>
      <trkpt lat="45.82966" lon="4.24334">
        <ele>550.299</ele>
        <time>2018-11-21T14:32:49Z</time>
      </trkpt>
      <trkpt lat="45.82957" lon="4.24336">
        <ele>549.504</ele>
        <time>2018-11-21T14:32:55Z</time>
      </trkpt>
      <trkpt lat="45.82949" lon="4.24338">
        <ele>548.611</ele>
        <time>2018-11-21T14:33:00Z</time>
      </trkpt>
      <trkpt lat="45.82939" lon="4.24341">
        <ele>548.014</ele>
        <time>2018-11-21T14:33:06Z</time>
      </trkpt>
      <trkpt lat="45.82932" lon="4.24343">
        <ele>547.413</ele>
        <time>2018-11-21T14:33:11Z</time>
      </trkpt>
      <trkpt lat="45.82925" lon="4.24347">
        <ele>547.227</ele>
        <time>2018-11-21T14:33:17Z</time>
      </trkpt>
      <trkpt lat="45.82918" lon="4.24353">
        <ele>547.234</ele>
        <time>2018-11-21T14:33:23Z</time>
      </trkpt>
      <trkpt lat="45.82911" lon="4.2436">
        <ele>547.323</ele>
        <time>2018-11-21T14:33:29Z</time>
      </trkpt>
      <trkpt lat="45.82908" lon="4.24372">
        <ele>547.276</ele>
        <time>2018-11-21T14:33:35Z</time>
      </trkpt>
      <trkpt lat="45.82906" lon="4.24381">
        <ele>546.858</ele>
        <time>2018-11-21T14:33:40Z</time>
      </trkpt>
      <trkpt lat="45.82903" lon="4.24395">
        <ele>545.955</ele>
        <time>2018-11-21T14:33:46Z</time>
      </trkpt>
      <trkpt lat="45.82901" lon="4.24405">
        <ele>545.199</ele>
        <time>2018-11-21T14:33:51Z</time>
      </trkpt>
      <trkpt lat="45.82899" lon="4.24413">
        <ele>544.482</ele>
        <time>2018-11-21T14:33:57Z</time>
      </trkpt>
      <trkpt lat="45.82899" lon="4.24425">
        <ele>544.027</ele>
        <time>2018-11-21T14:34:03Z</time>
      </trkpt>
      <trkpt lat="45.829" lon="4.24437">
        <ele>543.57</ele>
        <time>2018-11-21T14:34:08Z</time>
      </trkpt>
      <trkpt lat="45.82903" lon="4.24446">
        <ele>543.695</ele>
        <time>2018-11-21T14:34:13Z</time>
      </trkpt>
      <trkpt lat="45.82908" lon="4.24459">
        <ele>543.912</ele>
        <time>2018-11-21T14:34:19Z</time>
      </trkpt>
      <trkpt lat="45.82913" lon="4.24472">
        <ele>543.852</ele>
        <time>2018-11-21T14:34:25Z</time>
      </trkpt>
      <trkpt lat="45.82917" lon="4.2448">
        <ele>543.913</ele>
        <time>2018-11-21T14:34:30Z</time>
      </trkpt>
      <trkpt lat="45.82922" lon="4.24489">
        <ele>543.729</ele>
        <time>2018-11-21T14:34:36Z</time>
      </trkpt>
      <trkpt lat="45.82925" lon="4.24498">
        <ele>543.788</ele>
        <time>2018-11-21T14:34:41Z</time>
      </trkpt>
      <trkpt lat="45.82927" lon="4.24508">
        <ele>543.456</ele>
        <time>2018-11-21T14:34:47Z</time>
      </trkpt>
      <trkpt lat="45.82929" lon="4.24515">
        <ele>542.696</ele>
        <time>2018-11-21T14:34:52Z</time>
      </trkpt>
      <trkpt lat="45.8293" lon="4.24527">
        <ele>542.35</ele>
        <time>2018-11-21T14:34:58Z</time>
      </trkpt>
      <trkpt lat="45.82929" lon="4.24539">
        <ele>542.152</ele>
        <time>2018-11-21T14:35:03Z</time>
      </trkpt>
      <trkpt lat="45.82934" lon="4.24553">
        <ele>541.964</ele>
        <time>2018-11-21T14:35:08Z</time>
      </trkpt>
      <trkpt lat="45.8294" lon="4.24564">
        <ele>541.149</ele>
        <time>2018-11-21T14:35:14Z</time>
      </trkpt>
      <trkpt lat="45.82946" lon="4.24571">
        <ele>540.211</ele>
        <time>2018-11-21T14:35:20Z</time>
      </trkpt>
      <trkpt lat="45.82948" lon="4.2458">
        <ele>539.159</ele>
        <time>2018-11-21T14:35:26Z</time>
      </trkpt>
      <trkpt lat="45.82953" lon="4.24592">
        <ele>538.057</ele>
        <time>2018-11-21T14:35:32Z</time>
      </trkpt>
      <trkpt lat="45.82958" lon="4.24604">
        <ele>537.794</ele>
        <time>2018-11-21T14:35:38Z</time>
      </trkpt>
      <trkpt lat="45.82963" lon="4.24613">
        <ele>536.991</ele>
        <time>2018-11-21T14:35:43Z</time>
      </trkpt>
      <trkpt lat="45.82966" lon="4.24624">
        <ele>536.59</ele>
        <time>2018-11-21T14:35:49Z</time>
      </trkpt>
      <trkpt lat="45.82963" lon="4.24635">
        <ele>535.506</ele>
        <time>2018-11-21T14:35:54Z</time>
      </trkpt>
      <trkpt lat="45.82961" lon="4.24644">
        <ele>535.239</ele>
        <time>2018-11-21T14:36:00Z</time>
      </trkpt>
      <trkpt lat="45.82959" lon="4.24651">
        <ele>535.26</ele>
        <time>2018-11-21T14:36:06Z</time>
      </trkpt>
      <trkpt lat="45.8295" lon="4.24661">
        <ele>535.928</ele>
        <time>2018-11-21T14:36:12Z</time>
      </trkpt>
      <trkpt lat="45.8294" lon="4.24664">
        <ele>536.421</ele>
        <time>2018-11-21T14:36:18Z</time>
      </trkpt>
      <trkpt lat="45.82932" lon="4.2466">
        <ele>537.148</ele>
        <time>2018-11-21T14:36:24Z</time>
      </trkpt>
      <trkpt lat="45.82928" lon="4.24653">
        <ele>537.672</ele>
        <time>2018-11-21T14:36:29Z</time>
      </trkpt>
      <trkpt lat="45.82922" lon="4.24646">
        <ele>538.335</ele>
        <time>2018-11-21T14:36:34Z</time>
      </trkpt>
      <trkpt lat="45.82912" lon="4.24636">
        <ele>538.566</ele>
        <time>2018-11-21T14:36:40Z</time>
      </trkpt>
      <trkpt lat="45.82907" lon="4.24632">
        <ele>538.34</ele>
        <time>2018-11-21T14:36:45Z</time>
      </trkpt>
      <trkpt lat="45.82902" lon="4.24625">
        <ele>538.269</ele>
        <time>2018-11-21T14:36:51Z</time>
      </trkpt>
      <trkpt lat="45.82894" lon="4.24619">
        <ele>538.27</ele>
        <time>2018-11-21T14:36:56Z</time>
      </trkpt>
      <trkpt lat="45.82886" lon="4.24611">
        <ele>538.733</ele>
        <time>2018-11-21T14:37:02Z</time>
      </trkpt>
      <trkpt lat="45.82879" lon="4.24608">
        <ele>538.976</ele>
        <time>2018-11-21T14:37:07Z</time>
      </trkpt>
      <trkpt lat="45.82871" lon="4.24608">
        <ele>539.179</ele>
        <time>2018-11-21T14:37:12Z</time>
      </trkpt>
      <trkpt lat="45.82863" lon="4.24605">
        <ele>539.459</ele>
        <time>2018-11-21T14:37:17Z</time>
      </trkpt>
      <trkpt lat="45.82853" lon="4.24603">
        <ele>539.873</ele>
        <time>2018-11-21T14:37:23Z</time>
      </trkpt>
      <trkpt lat="45.82846" lon="4.246">
        <ele>540.24</ele>
        <time>2018-11-21T14:37:28Z</time>
      </trkpt>
      <trkpt lat="45.8284" lon="4.24598">
        <ele>540.446</ele>
        <time>2018-11-21T14:37:33Z</time>
      </trkpt>
      <trkpt lat="45.82834" lon="4.24598">
        <ele>540.802</ele>
        <time>2018-11-21T14:37:38Z</time>
      </trkpt>
      <trkpt lat="45.82827" lon="4.24599">
        <ele>541.127</ele>
        <time>2018-11-21T14:37:44Z</time>
      </trkpt>
      <trkpt lat="45.82821" lon="4.24599">
        <ele>541.379</ele>
        <time>2018-11-21T14:37:49Z</time>
      </trkpt>
      <trkpt lat="45.82814" lon="4.24602">
        <ele>541.666</ele>
        <time>2018-11-21T14:37:54Z</time>
      </trkpt>
      <trkpt lat="45.82808" lon="4.24608">
        <ele>541.764</ele>
        <time>2018-11-21T14:37:59Z</time>
      </trkpt>
      <trkpt lat="45.828" lon="4.24614">
        <ele>541.85</ele>
        <time>2018-11-21T14:38:05Z</time>
      </trkpt>
      <trkpt lat="45.82793" lon="4.24621">
        <ele>541.837</ele>
        <time>2018-11-21T14:38:11Z</time>
      </trkpt>
      <trkpt lat="45.82786" lon="4.24631">
        <ele>542.126</ele>
        <time>2018-11-21T14:38:17Z</time>
      </trkpt>
      <trkpt lat="45.82781" lon="4.24637">
        <ele>543.148</ele>
        <time>2018-11-21T14:38:23Z</time>
      </trkpt>
      <trkpt lat="45.82778" lon="4.24644">
        <ele>544.045</ele>
        <time>2018-11-21T14:38:28Z</time>
      </trkpt>
      <trkpt lat="45.82774" lon="4.24654">
        <ele>544.956</ele>
        <time>2018-11-21T14:38:34Z</time>
      </trkpt>
      <trkpt lat="45.82774" lon="4.24665">
        <ele>545.63</ele>
        <time>2018-11-21T14:38:39Z</time>
      </trkpt>
      <trkpt lat="45.82772" lon="4.24673">
        <ele>545.907</ele>
        <time>2018-11-21T14:38:45Z</time>
      </trkpt>
      <trkpt lat="45.82771" lon="4.24682">
        <ele>546.052</ele>
        <time>2018-11-21T14:38:50Z</time>
      </trkpt>
      <trkpt lat="45.8277" lon="4.24688">
        <ele>546.081</ele>
        <time>2018-11-21T14:38:55Z</time>
      </trkpt>
      <trkpt lat="45.82767" lon="4.24699">
        <ele>546.252</ele>
        <time>2018-11-21T14:39:01Z</time>
      </trkpt>
      <trkpt lat="45.82764" lon="4.24708">
        <ele>546.302</ele>
        <time>2018-11-21T14:39:06Z</time>
      </trkpt>
      <trkpt lat="45.82762" lon="4.24715">
        <ele>545.97</ele>
        <time>2018-11-21T14:39:11Z</time>
      </trkpt>
      <trkpt lat="45.82759" lon="4.24724">
        <ele>545.528</ele>
        <time>2018-11-21T14:39:17Z</time>
      </trkpt>
      <trkpt lat="45.82757" lon="4.24736">
        <ele>545.181</ele>
        <time>2018-11-21T14:39:23Z</time>
      </trkpt>
      <trkpt lat="45.82755" lon="4.24746">
        <ele>545.378</ele>
        <time>2018-11-21T14:39:28Z</time>
      </trkpt>
      <trkpt lat="45.82754" lon="4.24755">
        <ele>545.765</ele>
        <time>2018-11-21T14:39:33Z</time>
      </trkpt>
      <trkpt lat="45.82753" lon="4.24762">
        <ele>546.098</ele>
        <time>2018-11-21T14:39:38Z</time>
      </trkpt>
      <trkpt lat="45.82749" lon="4.2477">
        <ele>546.495</ele>
        <time>2018-11-21T14:39:44Z</time>
      </trkpt>
      <trkpt lat="45.82747" lon="4.24781">
        <ele>546.508</ele>
        <time>2018-11-21T14:39:50Z</time>
      </trkpt>
      <trkpt lat="45.82746" lon="4.2479">
        <ele>546.651</ele>
        <time>2018-11-21T14:39:55Z</time>
      </trkpt>
      <trkpt lat="45.82744" lon="4.24801">
        <ele>546.448</ele>
        <time>2018-11-21T14:40:01Z</time>
      </trkpt>
      <trkpt lat="45.82742" lon="4.24809">
        <ele>545.861</ele>
        <time>2018-11-21T14:40:06Z</time>
      </trkpt>
      <trkpt lat="45.82739" lon="4.24819">
        <ele>545.44</ele>
        <time>2018-11-21T14:40:12Z</time>
      </trkpt>
      <trkpt lat="45.82733" lon="4.24826">
        <ele>545.035</ele>
        <time>2018-11-21T14:40:18Z</time>
      </trkpt>
      <trkpt lat="45.82726" lon="4.24832">
        <ele>544.439</ele>
        <time>2018-11-21T14:40:24Z</time>
      </trkpt>
      <trkpt lat="45.82714" lon="4.24842">
        <ele>543.987</ele>
        <time>2018-11-21T14:40:29Z</time>
      </trkpt>
      <trkpt lat="45.82701" lon="4.2485">
        <ele>544.642</ele>
        <time>2018-11-21T14:40:35Z</time>
      </trkpt>
      <trkpt lat="45.82693" lon="4.2485">
        <ele>545.788</ele>
        <time>2018-11-21T14:40:40Z</time>
      </trkpt>
      <trkpt lat="45.82685" lon="4.24848">
        <ele>546.967</ele>
        <time>2018-11-21T14:40:45Z</time>
      </trkpt>
      <trkpt lat="45.82678" lon="4.24846">
        <ele>548.055</ele>
        <time>2018-11-21T14:40:51Z</time>
      </trkpt>
      <trkpt lat="45.82672" lon="4.24844">
        <ele>549.067</ele>
        <time>2018-11-21T14:40:56Z</time>
      </trkpt>
      <trkpt lat="45.82662" lon="4.2484">
        <ele>550.249</ele>
        <time>2018-11-21T14:41:02Z</time>
      </trkpt>
      <trkpt lat="45.82655" lon="4.24837">
        <ele>551.2</ele>
        <time>2018-11-21T14:41:07Z</time>
      </trkpt>
      <trkpt lat="45.82648" lon="4.24835">
        <ele>551.915</ele>
        <time>2018-11-21T14:41:12Z</time>
      </trkpt>
      <trkpt lat="45.82643" lon="4.24837">
        <ele>552.798</ele>
        <time>2018-11-21T14:41:17Z</time>
      </trkpt>
      <trkpt lat="45.82634" lon="4.2484">
        <ele>554.505</ele>
        <time>2018-11-21T14:41:23Z</time>
      </trkpt>
      <trkpt lat="45.82624" lon="4.24848">
        <ele>556.315</ele>
        <time>2018-11-21T14:41:29Z</time>
      </trkpt>
      <trkpt lat="45.82617" lon="4.24855">
        <ele>557.719</ele>
        <time>2018-11-21T14:41:35Z</time>
      </trkpt>
      <trkpt lat="45.82611" lon="4.24857">
        <ele>558.346</ele>
        <time>2018-11-21T14:41:40Z</time>
      </trkpt>
      <trkpt lat="45.82603" lon="4.2486">
        <ele>558.772</ele>
        <time>2018-11-21T14:41:46Z</time>
      </trkpt>
      <trkpt lat="45.82597" lon="4.24864">
        <ele>559.213</ele>
        <time>2018-11-21T14:41:51Z</time>
      </trkpt>
      <trkpt lat="45.82592" lon="4.24868">
        <ele>559.616</ele>
        <time>2018-11-21T14:41:56Z</time>
      </trkpt>
      <trkpt lat="45.82584" lon="4.24873">
        <ele>560.225</ele>
        <time>2018-11-21T14:42:02Z</time>
      </trkpt>
      <trkpt lat="45.82582" lon="4.24879">
        <ele>560.815</ele>
        <time>2018-11-21T14:42:07Z</time>
      </trkpt>
      <trkpt lat="45.82584" lon="4.24893">
        <ele>561.603</ele>
        <time>2018-11-21T14:42:13Z</time>
      </trkpt>
      <trkpt lat="45.82591" lon="4.24903">
        <ele>562.52</ele>
        <time>2018-11-21T14:42:19Z</time>
      </trkpt>
      <trkpt lat="45.82598" lon="4.24907">
        <ele>563.078</ele>
        <time>2018-11-21T14:42:24Z</time>
      </trkpt>
      <trkpt lat="45.82604" lon="4.24911">
        <ele>563.021</ele>
        <time>2018-11-21T14:42:29Z</time>
      </trkpt>
      <trkpt lat="45.8261" lon="4.24917">
        <ele>563.236</ele>
        <time>2018-11-21T14:42:35Z</time>
      </trkpt>
      <trkpt lat="45.82616" lon="4.24925">
        <ele>563.867</ele>
        <time>2018-11-21T14:42:41Z</time>
      </trkpt>
      <trkpt lat="45.8262" lon="4.24933">
        <ele>564.561</ele>
        <time>2018-11-21T14:42:46Z</time>
      </trkpt>
      <trkpt lat="45.82623" lon="4.2494">
        <ele>565.426</ele>
        <time>2018-11-21T14:42:51Z</time>
      </trkpt>
      <trkpt lat="45.82627" lon="4.24953">
        <ele>566.476</ele>
        <time>2018-11-21T14:42:57Z</time>
      </trkpt>
      <trkpt lat="45.82629" lon="4.24959">
        <ele>567.178</ele>
        <time>2018-11-21T14:43:02Z</time>
      </trkpt>
      <trkpt lat="45.82634" lon="4.2497">
        <ele>567.329</ele>
        <time>2018-11-21T14:43:07Z</time>
      </trkpt>
      <trkpt lat="45.82638" lon="4.24979">
        <ele>567.576</ele>
        <time>2018-11-21T14:43:12Z</time>
      </trkpt>
      <trkpt lat="45.82642" lon="4.24988">
        <ele>568.048</ele>
        <time>2018-11-21T14:43:18Z</time>
      </trkpt>
      <trkpt lat="45.82646" lon="4.24994">
        <ele>568.417</ele>
        <time>2018-11-21T14:43:23Z</time>
      </trkpt>
      <trkpt lat="45.8265" lon="4.25003">
        <ele>568.722</ele>
        <time>2018-11-21T14:43:28Z</time>
      </trkpt>
      <trkpt lat="45.82655" lon="4.25012">
        <ele>569.029</ele>
        <time>2018-11-21T14:43:34Z</time>
      </trkpt>
      <trkpt lat="45.8266" lon="4.25023">
        <ele>569.222</ele>
        <time>2018-11-21T14:43:40Z</time>
      </trkpt>
      <trkpt lat="45.82666" lon="4.2503">
        <ele>569.221</ele>
        <time>2018-11-21T14:43:45Z</time>
      </trkpt>
      <trkpt lat="45.82673" lon="4.25039">
        <ele>569.473</ele>
        <time>2018-11-21T14:43:51Z</time>
      </trkpt>
      <trkpt lat="45.82679" lon="4.25048">
        <ele>570.076</ele>
        <time>2018-11-21T14:43:57Z</time>
      </trkpt>
      <trkpt lat="45.82685" lon="4.25055">
        <ele>570.572</ele>
        <time>2018-11-21T14:44:03Z</time>
      </trkpt>
      <trkpt lat="45.82691" lon="4.25065">
        <ele>570.642</ele>
        <time>2018-11-21T14:44:09Z</time>
      </trkpt>
      <trkpt lat="45.82696" lon="4.25071">
        <ele>570.709</ele>
        <time>2018-11-21T14:44:14Z</time>
      </trkpt>
      <trkpt lat="45.82703" lon="4.2508">
        <ele>570.584</ele>
        <time>2018-11-21T14:44:20Z</time>
      </trkpt>
      <trkpt lat="45.8271" lon="4.25088">
        <ele>571.031</ele>
        <time>2018-11-21T14:44:26Z</time>
      </trkpt>
      <trkpt lat="45.82717" lon="4.25094">
        <ele>571.266</ele>
        <time>2018-11-21T14:44:31Z</time>
      </trkpt>
      <trkpt lat="45.82724" lon="4.25103">
        <ele>571.674</ele>
        <time>2018-11-21T14:44:37Z</time>
      </trkpt>
      <trkpt lat="45.8273" lon="4.2511">
        <ele>572.339</ele>
        <time>2018-11-21T14:44:43Z</time>
      </trkpt>
      <trkpt lat="45.82737" lon="4.25119">
        <ele>572.939</ele>
        <time>2018-11-21T14:44:49Z</time>
      </trkpt>
      <trkpt lat="45.82745" lon="4.25127">
        <ele>573.318</ele>
        <time>2018-11-21T14:44:55Z</time>
      </trkpt>
      <trkpt lat="45.82751" lon="4.25133">
        <ele>573.454</ele>
        <time>2018-11-21T14:45:00Z</time>
      </trkpt>
      <trkpt lat="45.82757" lon="4.25141">
        <ele>573.555</ele>
        <time>2018-11-21T14:45:06Z</time>
      </trkpt>
      <trkpt lat="45.82763" lon="4.25147">
        <ele>573.504</ele>
        <time>2018-11-21T14:45:11Z</time>
      </trkpt>
      <trkpt lat="45.82769" lon="4.25154">
        <ele>573.565</ele>
        <time>2018-11-21T14:45:17Z</time>
      </trkpt>
      <trkpt lat="45.82775" lon="4.25159">
        <ele>573.539</ele>
        <time>2018-11-21T14:45:22Z</time>
      </trkpt>
      <trkpt lat="45.82781" lon="4.25163">
        <ele>573.859</ele>
        <time>2018-11-21T14:45:27Z</time>
      </trkpt>
      <trkpt lat="45.82788" lon="4.25168">
        <ele>574.376</ele>
        <time>2018-11-21T14:45:33Z</time>
      </trkpt>
      <trkpt lat="45.82794" lon="4.25172">
        <ele>574.969</ele>
        <time>2018-11-21T14:45:38Z</time>
      </trkpt>
      <trkpt lat="45.82803" lon="4.25178">
        <ele>575.516</ele>
        <time>2018-11-21T14:45:44Z</time>
      </trkpt>
      <trkpt lat="45.8281" lon="4.25182">
        <ele>575.89</ele>
        <time>2018-11-21T14:45:49Z</time>
      </trkpt>
      <trkpt lat="45.82818" lon="4.25187">
        <ele>576.255</ele>
        <time>2018-11-21T14:45:55Z</time>
      </trkpt>
      <trkpt lat="45.82826" lon="4.25189">
        <ele>576.989</ele>
        <time>2018-11-21T14:46:01Z</time>
      </trkpt>
      <trkpt lat="45.82835" lon="4.2519">
        <ele>577.707</ele>
        <time>2018-11-21T14:46:07Z</time>
      </trkpt>
      <trkpt lat="45.82841" lon="4.25193">
        <ele>578.135</ele>
        <time>2018-11-21T14:46:12Z</time>
      </trkpt>
      <trkpt lat="45.82847" lon="4.25197">
        <ele>578.388</ele>
        <time>2018-11-21T14:46:18Z</time>
      </trkpt>
      <trkpt lat="45.82854" lon="4.25201">
        <ele>578.383</ele>
        <time>2018-11-21T14:46:23Z</time>
      </trkpt>
      <trkpt lat="45.82861" lon="4.25206">
        <ele>578.905</ele>
        <time>2018-11-21T14:46:29Z</time>
      </trkpt>
      <trkpt lat="45.82869" lon="4.25211">
        <ele>579.631</ele>
        <time>2018-11-21T14:46:35Z</time>
      </trkpt>
      <trkpt lat="45.82876" lon="4.25215">
        <ele>579.823</ele>
        <time>2018-11-21T14:46:40Z</time>
      </trkpt>
      <trkpt lat="45.82883" lon="4.2522">
        <ele>579.828</ele>
        <time>2018-11-21T14:46:45Z</time>
      </trkpt>
      <trkpt lat="45.8289" lon="4.2523">
        <ele>580.075</ele>
        <time>2018-11-21T14:46:51Z</time>
      </trkpt>
      <trkpt lat="45.82896" lon="4.25237">
        <ele>580.608</ele>
        <time>2018-11-21T14:46:57Z</time>
      </trkpt>
      <trkpt lat="45.82902" lon="4.25243">
        <ele>581.294</ele>
        <time>2018-11-21T14:47:03Z</time>
      </trkpt>
      <trkpt lat="45.82908" lon="4.25247">
        <ele>582.203</ele>
        <time>2018-11-21T14:47:09Z</time>
      </trkpt>
      <trkpt lat="45.82915" lon="4.25253">
        <ele>583.158</ele>
        <time>2018-11-21T14:47:14Z</time>
      </trkpt>
      <trkpt lat="45.82924" lon="4.25259">
        <ele>583.985</ele>
        <time>2018-11-21T14:47:20Z</time>
      </trkpt>
      <trkpt lat="45.82932" lon="4.25262">
        <ele>584.923</ele>
        <time>2018-11-21T14:47:26Z</time>
      </trkpt>
      <trkpt lat="45.82938" lon="4.25263">
        <ele>585.573</ele>
        <time>2018-11-21T14:47:31Z</time>
      </trkpt>
      <trkpt lat="45.82947" lon="4.25263">
        <ele>585.866</ele>
        <time>2018-11-21T14:47:37Z</time>
      </trkpt>
      <trkpt lat="45.82956" lon="4.25262">
        <ele>586.522</ele>
        <time>2018-11-21T14:47:43Z</time>
      </trkpt>
      <trkpt lat="45.82965" lon="4.25264">
        <ele>586.955</ele>
        <time>2018-11-21T14:47:49Z</time>
      </trkpt>
      <trkpt lat="45.82974" lon="4.25265">
        <ele>587.18</ele>
        <time>2018-11-21T14:47:55Z</time>
      </trkpt>
      <trkpt lat="45.82982" lon="4.25268">
        <ele>587.502</ele>
        <time>2018-11-21T14:48:01Z</time>
      </trkpt>
      <trkpt lat="45.82992" lon="4.25271">
        <ele>587.467</ele>
        <time>2018-11-21T14:48:06Z</time>
      </trkpt>
      <trkpt lat="45.83" lon="4.25275">
        <ele>587.716</ele>
        <time>2018-11-21T14:48:11Z</time>
      </trkpt>
      <trkpt lat="45.83008" lon="4.25281">
        <ele>587.919</ele>
        <time>2018-11-21T14:48:17Z</time>
      </trkpt>
      <trkpt lat="45.83015" lon="4.25286">
        <ele>588.054</ele>
        <time>2018-11-21T14:48:23Z</time>
      </trkpt>
      <trkpt lat="45.83021" lon="4.25291">
        <ele>588.233</ele>
        <time>2018-11-21T14:48:28Z</time>
      </trkpt>
      <trkpt lat="45.83027" lon="4.25298">
        <ele>588.551</ele>
        <time>2018-11-21T14:48:34Z</time>
      </trkpt>
      <trkpt lat="45.83037" lon="4.25307">
        <ele>588.953</ele>
        <time>2018-11-21T14:48:40Z</time>
      </trkpt>
      <trkpt lat="45.83044" lon="4.25313">
        <ele>588.77</ele>
        <time>2018-11-21T14:48:45Z</time>
      </trkpt>
      <trkpt lat="45.83051" lon="4.25316">
        <ele>588.84</ele>
        <time>2018-11-21T14:48:51Z</time>
      </trkpt>
      <trkpt lat="45.83058" lon="4.25322">
        <ele>589.167</ele>
        <time>2018-11-21T14:48:57Z</time>
      </trkpt>
      <trkpt lat="45.83065" lon="4.25327">
        <ele>589.241</ele>
        <time>2018-11-21T14:49:03Z</time>
      </trkpt>
      <trkpt lat="45.83072" lon="4.2533">
        <ele>589.363</ele>
        <time>2018-11-21T14:49:08Z</time>
      </trkpt>
      <trkpt lat="45.83078" lon="4.25334">
        <ele>589.412</ele>
        <time>2018-11-21T14:49:14Z</time>
      </trkpt>
      <trkpt lat="45.83086" lon="4.2534">
        <ele>589.728</ele>
        <time>2018-11-21T14:49:20Z</time>
      </trkpt>
      <trkpt lat="45.83093" lon="4.25345">
        <ele>589.8</ele>
        <time>2018-11-21T14:49:26Z</time>
      </trkpt>
      <trkpt lat="45.83098" lon="4.25348">
        <ele>590.25</ele>
        <time>2018-11-21T14:49:31Z</time>
      </trkpt>
      <trkpt lat="45.83104" lon="4.25353">
        <ele>590.956</ele>
        <time>2018-11-21T14:49:37Z</time>
      </trkpt>
      <trkpt lat="45.8311" lon="4.25361">
        <ele>591.419</ele>
        <time>2018-11-21T14:49:42Z</time>
      </trkpt>
      <trkpt lat="45.83116" lon="4.25368">
        <ele>592.19</ele>
        <time>2018-11-21T14:49:48Z</time>
      </trkpt>
      <trkpt lat="45.83121" lon="4.25374">
        <ele>592.918</ele>
        <time>2018-11-21T14:49:54Z</time>
      </trkpt>
      <trkpt lat="45.8313" lon="4.25381">
        <ele>593.506</ele>
        <time>2018-11-21T14:50:00Z</time>
      </trkpt>
      <trkpt lat="45.83137" lon="4.25386">
        <ele>594.38</ele>
        <time>2018-11-21T14:50:06Z</time>
      </trkpt>
      <trkpt lat="45.83144" lon="4.25391">
        <ele>594.751</ele>
        <time>2018-11-21T14:50:11Z</time>
      </trkpt>
      <trkpt lat="45.8315" lon="4.25395">
        <ele>595.316</ele>
        <time>2018-11-21T14:50:16Z</time>
      </trkpt>
      <trkpt lat="45.83158" lon="4.25399">
        <ele>596.063</ele>
        <time>2018-11-21T14:50:22Z</time>
      </trkpt>
      <trkpt lat="45.83167" lon="4.25405">
        <ele>596.463</ele>
        <time>2018-11-21T14:50:28Z</time>
      </trkpt>
      <trkpt lat="45.83176" lon="4.25408">
        <ele>596.448</ele>
        <time>2018-11-21T14:50:34Z</time>
      </trkpt>
      <trkpt lat="45.83183" lon="4.25411">
        <ele>596.442</ele>
        <time>2018-11-21T14:50:39Z</time>
      </trkpt>
      <trkpt lat="45.83193" lon="4.25417">
        <ele>596.539</ele>
        <time>2018-11-21T14:50:45Z</time>
      </trkpt>
      <trkpt lat="45.83201" lon="4.25421">
        <ele>597.248</ele>
        <time>2018-11-21T14:50:51Z</time>
      </trkpt>
      <trkpt lat="45.83208" lon="4.25425">
        <ele>598.253</ele>
        <time>2018-11-21T14:50:57Z</time>
      </trkpt>
      <trkpt lat="45.83214" lon="4.25431">
        <ele>598.796</ele>
        <time>2018-11-21T14:51:03Z</time>
      </trkpt>
      <trkpt lat="45.83221" lon="4.2544">
        <ele>599.57</ele>
        <time>2018-11-21T14:51:09Z</time>
      </trkpt>
      <trkpt lat="45.83227" lon="4.25445">
        <ele>600.063</ele>
        <time>2018-11-21T14:51:15Z</time>
      </trkpt>
      <trkpt lat="45.83234" lon="4.25451">
        <ele>600.54</ele>
        <time>2018-11-21T14:51:21Z</time>
      </trkpt>
      <trkpt lat="45.83239" lon="4.25458">
        <ele>601.248</ele>
        <time>2018-11-21T14:51:27Z</time>
      </trkpt>
      <trkpt lat="45.83247" lon="4.25467">
        <ele>602.057</ele>
        <time>2018-11-21T14:51:33Z</time>
      </trkpt>
      <trkpt lat="45.83254" lon="4.25476">
        <ele>602.401</ele>
        <time>2018-11-21T14:51:39Z</time>
      </trkpt>
      <trkpt lat="45.83259" lon="4.25484">
        <ele>602.623</ele>
        <time>2018-11-21T14:51:44Z</time>
      </trkpt>
      <trkpt lat="45.83267" lon="4.25495">
        <ele>602.304</ele>
        <time>2018-11-21T14:51:50Z</time>
      </trkpt>
      <trkpt lat="45.83272" lon="4.25501">
        <ele>602.047</ele>
        <time>2018-11-21T14:51:55Z</time>
      </trkpt>
      <trkpt lat="45.83279" lon="4.25511">
        <ele>602.121</ele>
        <time>2018-11-21T14:52:01Z</time>
      </trkpt>
      <trkpt lat="45.83282" lon="4.25518">
        <ele>602.527</ele>
        <time>2018-11-21T14:52:06Z</time>
      </trkpt>
      <trkpt lat="45.83286" lon="4.25527">
        <ele>603.144</ele>
        <time>2018-11-21T14:52:12Z</time>
      </trkpt>
      <trkpt lat="45.8329" lon="4.25538">
        <ele>603.357</ele>
        <time>2018-11-21T14:52:18Z</time>
      </trkpt>
      <trkpt lat="45.83295" lon="4.2555">
        <ele>603.532</ele>
        <time>2018-11-21T14:52:24Z</time>
      </trkpt>
      <trkpt lat="45.83298" lon="4.25557">
        <ele>603.895</ele>
        <time>2018-11-21T14:52:29Z</time>
      </trkpt>
      <trkpt lat="45.83301" lon="4.25565">
        <ele>604.596</ele>
        <time>2018-11-21T14:52:35Z</time>
      </trkpt>
      <trkpt lat="45.83304" lon="4.25575">
        <ele>605.213</ele>
        <time>2018-11-21T14:52:40Z</time>
      </trkpt>
      <trkpt lat="45.83307" lon="4.25585">
        <ele>606.134</ele>
        <time>2018-11-21T14:52:46Z</time>
      </trkpt>
      <trkpt lat="45.83311" lon="4.25595">
        <ele>607.034</ele>
        <time>2018-11-21T14:52:52Z</time>
      </trkpt>
      <trkpt lat="45.83317" lon="4.25607">
        <ele>607.083</ele>
        <time>2018-11-21T14:52:58Z</time>
      </trkpt>
      <trkpt lat="45.83322" lon="4.25613">
        <ele>607.434</ele>
        <time>2018-11-21T14:53:04Z</time>
      </trkpt>
      <trkpt lat="45.83328" lon="4.25622">
        <ele>607.772</ele>
        <time>2018-11-21T14:53:09Z</time>
      </trkpt>
      <trkpt lat="45.83335" lon="4.25632">
        <ele>608.171</ele>
        <time>2018-11-21T14:53:15Z</time>
      </trkpt>
      <trkpt lat="45.8334" lon="4.25639">
        <ele>608.527</ele>
        <time>2018-11-21T14:53:20Z</time>
      </trkpt>
      <trkpt lat="45.83347" lon="4.25646">
        <ele>609.098</ele>
        <time>2018-11-21T14:53:25Z</time>
      </trkpt>
      <trkpt lat="45.83356" lon="4.25652">
        <ele>609.865</ele>
        <time>2018-11-21T14:53:31Z</time>
      </trkpt>
      <trkpt lat="45.83363" lon="4.25659">
        <ele>610.05</ele>
        <time>2018-11-21T14:53:37Z</time>
      </trkpt>
      <trkpt lat="45.83367" lon="4.25665">
        <ele>609.888</ele>
        <time>2018-11-21T14:53:42Z</time>
      </trkpt>
      <trkpt lat="45.83373" lon="4.25671">
        <ele>609.776</ele>
        <time>2018-11-21T14:53:48Z</time>
      </trkpt>
      <trkpt lat="45.83382" lon="4.2568">
        <ele>610.095</ele>
        <time>2018-11-21T14:53:54Z</time>
      </trkpt>
      <trkpt lat="45.83385" lon="4.25687">
        <ele>610.715</ele>
        <time>2018-11-21T14:53:59Z</time>
      </trkpt>
      <trkpt lat="45.8339" lon="4.25693">
        <ele>611.394</ele>
        <time>2018-11-21T14:54:05Z</time>
      </trkpt>
      <trkpt lat="45.83398" lon="4.25704">
        <ele>612.003</ele>
        <time>2018-11-21T14:54:11Z</time>
      </trkpt>
      <trkpt lat="45.83404" lon="4.25712">
        <ele>612.302</ele>
        <time>2018-11-21T14:54:16Z</time>
      </trkpt>
      <trkpt lat="45.83409" lon="4.25719">
        <ele>612.779</ele>
        <time>2018-11-21T14:54:22Z</time>
      </trkpt>
      <trkpt lat="45.83415" lon="4.25726">
        <ele>612.946</ele>
        <time>2018-11-21T14:54:28Z</time>
      </trkpt>
      <trkpt lat="45.83422" lon="4.25736">
        <ele>613.634</ele>
        <time>2018-11-21T14:54:34Z</time>
      </trkpt>
      <trkpt lat="45.83426" lon="4.25744">
        <ele>614.114</ele>
        <time>2018-11-21T14:54:39Z</time>
      </trkpt>
      <trkpt lat="45.83432" lon="4.25753">
        <ele>614.526</ele>
        <time>2018-11-21T14:54:45Z</time>
      </trkpt>
      <trkpt lat="45.83439" lon="4.2576">
        <ele>615.178</ele>
        <time>2018-11-21T14:54:50Z</time>
      </trkpt>
      <trkpt lat="45.83445" lon="4.25768">
        <ele>615.436</ele>
        <time>2018-11-21T14:54:56Z</time>
      </trkpt>
      <trkpt lat="45.83453" lon="4.25773">
        <ele>615.604</ele>
        <time>2018-11-21T14:55:02Z</time>
      </trkpt>
      <trkpt lat="45.83459" lon="4.25777">
        <ele>615.42</ele>
        <time>2018-11-21T14:55:08Z</time>
      </trkpt>
      <trkpt lat="45.83467" lon="4.25781">
        <ele>615.342</ele>
        <time>2018-11-21T14:55:14Z</time>
      </trkpt>
      <trkpt lat="45.83476" lon="4.25789">
        <ele>615.551</ele>
        <time>2018-11-21T14:55:20Z</time>
      </trkpt>
      <trkpt lat="45.83483" lon="4.25795">
        <ele>615.7</ele>
        <time>2018-11-21T14:55:25Z</time>
      </trkpt>
      <trkpt lat="45.83491" lon="4.25801">
        <ele>616.141</ele>
        <time>2018-11-21T14:55:31Z</time>
      </trkpt>
      <trkpt lat="45.83498" lon="4.25805">
        <ele>616.574</ele>
        <time>2018-11-21T14:55:37Z</time>
      </trkpt>
      <trkpt lat="45.83504" lon="4.25808">
        <ele>616.931</ele>
        <time>2018-11-21T14:55:42Z</time>
      </trkpt>
      <trkpt lat="45.83512" lon="4.25812">
        <ele>617.719</ele>
        <time>2018-11-21T14:55:48Z</time>
      </trkpt>
      <trkpt lat="45.8352" lon="4.25817">
        <ele>618.529</ele>
        <time>2018-11-21T14:55:54Z</time>
      </trkpt>
      <trkpt lat="45.83528" lon="4.25822">
        <ele>619.311</ele>
        <time>2018-11-21T14:56:00Z</time>
      </trkpt>
      <trkpt lat="45.83535" lon="4.25827">
        <ele>620.061</ele>
        <time>2018-11-21T14:56:06Z</time>
      </trkpt>
      <trkpt lat="45.83543" lon="4.25832">
        <ele>620.956</ele>
        <time>2018-11-21T14:56:12Z</time>
      </trkpt>
      <trkpt lat="45.83553" lon="4.25837">
        <ele>621.477</ele>
        <time>2018-11-21T14:56:18Z</time>
      </trkpt>
      <trkpt lat="45.83563" lon="4.2584">
        <ele>621.995</ele>
        <time>2018-11-21T14:56:24Z</time>
      </trkpt>
      <trkpt lat="45.83569" lon="4.25844">
        <ele>622.362</ele>
        <time>2018-11-21T14:56:29Z</time>
      </trkpt>
      <trkpt lat="45.83576" lon="4.25847">
        <ele>622.809</ele>
        <time>2018-11-21T14:56:35Z</time>
      </trkpt>
      <trkpt lat="45.83582" lon="4.25852">
        <ele>623.008</ele>
        <time>2018-11-21T14:56:41Z</time>
      </trkpt>
      <trkpt lat="45.83592" lon="4.25857">
        <ele>623.064</ele>
        <time>2018-11-21T14:56:47Z</time>
      </trkpt>
      <trkpt lat="45.83598" lon="4.25862">
        <ele>623.219</ele>
        <time>2018-11-21T14:56:52Z</time>
      </trkpt>
      <trkpt lat="45.83606" lon="4.25866">
        <ele>622.989</ele>
        <time>2018-11-21T14:56:58Z</time>
      </trkpt>
      <trkpt lat="45.83613" lon="4.25871">
        <ele>622.474</ele>
        <time>2018-11-21T14:57:04Z</time>
      </trkpt>
      <trkpt lat="45.83621" lon="4.25879">
        <ele>622.163</ele>
        <time>2018-11-21T14:57:10Z</time>
      </trkpt>
      <trkpt lat="45.83626" lon="4.25882">
        <ele>622.542</ele>
        <time>2018-11-21T14:57:15Z</time>
      </trkpt>
      <trkpt lat="45.83632" lon="4.25888">
        <ele>623.421</ele>
        <time>2018-11-21T14:57:21Z</time>
      </trkpt>
      <trkpt lat="45.83638" lon="4.25893">
        <ele>623.951</ele>
        <time>2018-11-21T14:57:27Z</time>
      </trkpt>
      <trkpt lat="45.83645" lon="4.25901">
        <ele>624.792</ele>
        <time>2018-11-21T14:57:33Z</time>
      </trkpt>
      <trkpt lat="45.83652" lon="4.25907">
        <ele>626.048</ele>
        <time>2018-11-21T14:57:39Z</time>
      </trkpt>
      <trkpt lat="45.83658" lon="4.25911">
        <ele>626.899</ele>
        <time>2018-11-21T14:57:44Z</time>
      </trkpt>
      <trkpt lat="45.83663" lon="4.25913">
        <ele>627.677</ele>
        <time>2018-11-21T14:57:49Z</time>
      </trkpt>
      <trkpt lat="45.83669" lon="4.25917">
        <ele>628.218</ele>
        <time>2018-11-21T14:57:55Z</time>
      </trkpt>
      <trkpt lat="45.83676" lon="4.25921">
        <ele>628.877</ele>
        <time>2018-11-21T14:58:01Z</time>
      </trkpt>
      <trkpt lat="45.83682" lon="4.25926">
        <ele>629.083</ele>
        <time>2018-11-21T14:58:07Z</time>
      </trkpt>
      <trkpt lat="45.83691" lon="4.2593">
        <ele>629.529</ele>
        <time>2018-11-21T14:58:13Z</time>
      </trkpt>
      <trkpt lat="45.83701" lon="4.25937">
        <ele>629.911</ele>
        <time>2018-11-21T14:58:19Z</time>
      </trkpt>
      <trkpt lat="45.83708" lon="4.25941">
        <ele>630.16</ele>
        <time>2018-11-21T14:58:24Z</time>
      </trkpt>
      <trkpt lat="45.83717" lon="4.25946">
        <ele>630.487</ele>
        <time>2018-11-21T14:58:30Z</time>
      </trkpt>
      <trkpt lat="45.83723" lon="4.25952">
        <ele>630.535</ele>
        <time>2018-11-21T14:58:35Z</time>
      </trkpt>
      <trkpt lat="45.83729" lon="4.25957">
        <ele>630.612</ele>
        <time>2018-11-21T14:58:41Z</time>
      </trkpt>
      <trkpt lat="45.83737" lon="4.2596">
        <ele>630.76</ele>
        <time>2018-11-21T14:58:46Z</time>
      </trkpt>
      <trkpt lat="45.83746" lon="4.25964">
        <ele>630.98</ele>
        <time>2018-11-21T14:58:51Z</time>
      </trkpt>
      <trkpt lat="45.83754" lon="4.25969">
        <ele>631.637</ele>
        <time>2018-11-21T14:58:57Z</time>
      </trkpt>
      <trkpt lat="45.83758" lon="4.2597">
        <ele>632.066</ele>
        <time>2018-11-21T14:59:02Z</time>
      </trkpt>
      <trkpt lat="45.83764" lon="4.25973">
        <ele>632.604</ele>
        <time>2018-11-21T14:59:08Z</time>
      </trkpt>
      <trkpt lat="45.8377" lon="4.25977">
        <ele>633.162</ele>
        <time>2018-11-21T14:59:13Z</time>
      </trkpt>
      <trkpt lat="45.83777" lon="4.25982">
        <ele>633.991</ele>
        <time>2018-11-21T14:59:18Z</time>
      </trkpt>
      <trkpt lat="45.83784" lon="4.25985">
        <ele>634.963</ele>
        <time>2018-11-21T14:59:24Z</time>
      </trkpt>
      <trkpt lat="45.8379" lon="4.25989">
        <ele>635.861</ele>
        <time>2018-11-21T14:59:30Z</time>
      </trkpt>
      <trkpt lat="45.83793" lon="4.25991">
        <ele>636.417</ele>
        <time>2018-11-21T14:59:35Z</time>
      </trkpt>
      <trkpt lat="45.838" lon="4.25996">
        <ele>637.248</ele>
        <time>2018-11-21T14:59:41Z</time>
      </trkpt>
      <trkpt lat="45.83802" lon="4.26008">
        <ele>637.834</ele>
        <time>2018-11-21T14:59:47Z</time>
      </trkpt>
      <trkpt lat="45.83805" lon="4.26019">
        <ele>637.737</ele>
        <time>2018-11-21T14:59:52Z</time>
      </trkpt>
      <trkpt lat="45.83808" lon="4.26029">
        <ele>637.705</ele>
        <time>2018-11-21T14:59:57Z</time>
      </trkpt>
      <trkpt lat="45.83809" lon="4.26037">
        <ele>637.639</ele>
        <time>2018-11-21T15:00:02Z</time>
      </trkpt>
      <trkpt lat="45.83812" lon="4.26046">
        <ele>637.614</ele>
        <time>2018-11-21T15:00:07Z</time>
      </trkpt>
      <trkpt lat="45.83816" lon="4.2606">
        <ele>637.283</ele>
        <time>2018-11-21T15:00:13Z</time>
      </trkpt>
      <trkpt lat="45.83818" lon="4.26071">
        <ele>636.964</ele>
        <time>2018-11-21T15:00:19Z</time>
      </trkpt>
      <trkpt lat="45.83822" lon="4.26081">
        <ele>636.627</ele>
        <time>2018-11-21T15:00:25Z</time>
      </trkpt>
      <trkpt lat="45.83826" lon="4.26092">
        <ele>636</ele>
        <time>2018-11-21T15:00:31Z</time>
      </trkpt>
      <trkpt lat="45.83829" lon="4.26101">
        <ele>635.371</ele>
        <time>2018-11-21T15:00:36Z</time>
      </trkpt>
      <trkpt lat="45.83832" lon="4.26114">
        <ele>634.981</ele>
        <time>2018-11-21T15:00:42Z</time>
      </trkpt>
      <trkpt lat="45.83836" lon="4.26123">
        <ele>634.41</ele>
        <time>2018-11-21T15:00:47Z</time>
      </trkpt>
      <trkpt lat="45.83844" lon="4.26133">
        <ele>633.927</ele>
        <time>2018-11-21T15:00:53Z</time>
      </trkpt>
      <trkpt lat="45.8385" lon="4.26144">
        <ele>633.525</ele>
        <time>2018-11-21T15:00:59Z</time>
      </trkpt>
      <trkpt lat="45.83852" lon="4.26152">
        <ele>633.205</ele>
        <time>2018-11-21T15:01:04Z</time>
      </trkpt>
      <trkpt lat="45.83857" lon="4.26161">
        <ele>632.867</ele>
        <time>2018-11-21T15:01:09Z</time>
      </trkpt>
      <trkpt lat="45.83862" lon="4.26173">
        <ele>632.151</ele>
        <time>2018-11-21T15:01:15Z</time>
      </trkpt>
      <trkpt lat="45.83864" lon="4.26183">
        <ele>631.767</ele>
        <time>2018-11-21T15:01:21Z</time>
      </trkpt>
      <trkpt lat="45.83867" lon="4.26195">
        <ele>631.59</ele>
        <time>2018-11-21T15:01:26Z</time>
      </trkpt>
      <trkpt lat="45.83869" lon="4.26205">
        <ele>631.099</ele>
        <time>2018-11-21T15:01:31Z</time>
      </trkpt>
      <trkpt lat="45.83873" lon="4.26215">
        <ele>630.416</ele>
        <time>2018-11-21T15:01:36Z</time>
      </trkpt>
      <trkpt lat="45.83874" lon="4.26228">
        <ele>629.711</ele>
        <time>2018-11-21T15:01:42Z</time>
      </trkpt>
      <trkpt lat="45.83873" lon="4.26238">
        <ele>628.787</ele>
        <time>2018-11-21T15:01:48Z</time>
      </trkpt>
      <trkpt lat="45.83871" lon="4.26249">
        <ele>628.269</ele>
        <time>2018-11-21T15:01:53Z</time>
      </trkpt>
      <trkpt lat="45.83868" lon="4.26262">
        <ele>627.653</ele>
        <time>2018-11-21T15:01:59Z</time>
      </trkpt>
      <trkpt lat="45.83863" lon="4.26274">
        <ele>627.012</ele>
        <time>2018-11-21T15:02:05Z</time>
      </trkpt>
      <trkpt lat="45.83857" lon="4.26284">
        <ele>626.479</ele>
        <time>2018-11-21T15:02:11Z</time>
      </trkpt>
      <trkpt lat="45.83851" lon="4.26294">
        <ele>626.173</ele>
        <time>2018-11-21T15:02:16Z</time>
      </trkpt>
      <trkpt lat="45.83847" lon="4.26306">
        <ele>625.912</ele>
        <time>2018-11-21T15:02:22Z</time>
      </trkpt>
      <trkpt lat="45.83842" lon="4.26317">
        <ele>625.539</ele>
        <time>2018-11-21T15:02:28Z</time>
      </trkpt>
      <trkpt lat="45.83841" lon="4.26331">
        <ele>624.977</ele>
        <time>2018-11-21T15:02:33Z</time>
      </trkpt>
      <trkpt lat="45.8384" lon="4.26343">
        <ele>624.041</ele>
        <time>2018-11-21T15:02:39Z</time>
      </trkpt>
      <trkpt lat="45.83844" lon="4.26357">
        <ele>623.047</ele>
        <time>2018-11-21T15:02:45Z</time>
      </trkpt>
      <trkpt lat="45.83844" lon="4.2637">
        <ele>622.183</ele>
        <time>2018-11-21T15:02:50Z</time>
      </trkpt>
      <trkpt lat="45.83843" lon="4.26379">
        <ele>621.743</ele>
        <time>2018-11-21T15:02:55Z</time>
      </trkpt>
      <trkpt lat="45.83842" lon="4.26393">
        <ele>621.481</ele>
        <time>2018-11-21T15:03:01Z</time>
      </trkpt>
      <trkpt lat="45.83841" lon="4.26405">
        <ele>621.082</ele>
        <time>2018-11-21T15:03:07Z</time>
      </trkpt>
      <trkpt lat="45.8384" lon="4.26414">
        <ele>620.866</ele>
        <time>2018-11-21T15:03:12Z</time>
      </trkpt>
      <trkpt lat="45.83838" lon="4.26428">
        <ele>620.74</ele>
        <time>2018-11-21T15:03:18Z</time>
      </trkpt>
      <trkpt lat="45.83838" lon="4.2644">
        <ele>619.658</ele>
        <time>2018-11-21T15:03:24Z</time>
      </trkpt>
      <trkpt lat="45.83838" lon="4.26449">
        <ele>618.996</ele>
        <time>2018-11-21T15:03:29Z</time>
      </trkpt>
      <trkpt lat="45.83836" lon="4.26461">
        <ele>617.967</ele>
        <time>2018-11-21T15:03:34Z</time>
      </trkpt>
      <trkpt lat="45.83836" lon="4.26469">
        <ele>616.384</ele>
        <time>2018-11-21T15:03:40Z</time>
      </trkpt>
      <trkpt lat="45.83837" lon="4.26482">
        <ele>615.5</ele>
        <time>2018-11-21T15:03:45Z</time>
      </trkpt>
      <trkpt lat="45.83838" lon="4.26492">
        <ele>614.391</ele>
        <time>2018-11-21T15:03:51Z</time>
      </trkpt>
      <trkpt lat="45.83842" lon="4.26502">
        <ele>613.867</ele>
        <time>2018-11-21T15:03:57Z</time>
      </trkpt>
      <trkpt lat="45.83846" lon="4.26514">
        <ele>613.864</ele>
        <time>2018-11-21T15:04:03Z</time>
      </trkpt>
      <trkpt lat="45.83851" lon="4.26526">
        <ele>613.526</ele>
        <time>2018-11-21T15:04:09Z</time>
      </trkpt>
      <trkpt lat="45.83856" lon="4.26536">
        <ele>613.251</ele>
        <time>2018-11-21T15:04:15Z</time>
      </trkpt>
      <trkpt lat="45.83863" lon="4.26544">
        <ele>612.967</ele>
        <time>2018-11-21T15:04:21Z</time>
      </trkpt>
      <trkpt lat="45.83871" lon="4.26553">
        <ele>612.306</ele>
        <time>2018-11-21T15:04:27Z</time>
      </trkpt>
      <trkpt lat="45.83877" lon="4.26561">
        <ele>611.876</ele>
        <time>2018-11-21T15:04:33Z</time>
      </trkpt>
      <trkpt lat="45.83884" lon="4.26569">
        <ele>611.957</ele>
        <time>2018-11-21T15:04:39Z</time>
      </trkpt>
      <trkpt lat="45.83881" lon="4.26577">
        <ele>612.023</ele>
        <time>2018-11-21T15:04:44Z</time>
      </trkpt>
      <trkpt lat="45.83874" lon="4.26577">
        <ele>611.888</ele>
        <time>2018-11-21T15:04:49Z</time>
      </trkpt>
      <trkpt lat="45.83866" lon="4.26577">
        <ele>611.731</ele>
        <time>2018-11-21T15:04:55Z</time>
      </trkpt>
      <trkpt lat="45.83858" lon="4.26578">
        <ele>611.89</ele>
        <time>2018-11-21T15:05:01Z</time>
      </trkpt>
      <trkpt lat="45.83851" lon="4.26582">
        <ele>611.89</ele>
        <time>2018-11-21T15:05:07Z</time>
      </trkpt>
      <trkpt lat="45.83845" lon="4.26587">
        <ele>611.42</ele>
        <time>2018-11-21T15:05:12Z</time>
      </trkpt>
      <trkpt lat="45.83839" lon="4.26588">
        <ele>611.075</ele>
        <time>2018-11-21T15:05:18Z</time>
      </trkpt>
      <trkpt lat="45.83827" lon="4.26581">
        <ele>610.574</ele>
        <time>2018-11-21T15:05:24Z</time>
      </trkpt>
      <trkpt lat="45.83818" lon="4.26578">
        <ele>610.562</ele>
        <time>2018-11-21T15:05:29Z</time>
      </trkpt>
      <trkpt lat="45.8381" lon="4.26573">
        <ele>610.601</ele>
        <time>2018-11-21T15:05:35Z</time>
      </trkpt>
      <trkpt lat="45.83802" lon="4.26571">
        <ele>610.676</ele>
        <time>2018-11-21T15:05:40Z</time>
      </trkpt>
      <trkpt lat="45.83796" lon="4.26567">
        <ele>610.522</ele>
        <time>2018-11-21T15:05:46Z</time>
      </trkpt>
      <trkpt lat="45.83791" lon="4.26562">
        <ele>610.306</ele>
        <time>2018-11-21T15:05:52Z</time>
      </trkpt>
      <trkpt lat="45.83786" lon="4.26558">
        <ele>610.001</ele>
        <time>2018-11-21T15:05:57Z</time>
      </trkpt>
      <trkpt lat="45.8378" lon="4.26555">
        <ele>609.798</ele>
        <time>2018-11-21T15:06:03Z</time>
      </trkpt>
      <trkpt lat="45.83773" lon="4.26551">
        <ele>609.777</ele>
        <time>2018-11-21T15:06:08Z</time>
      </trkpt>
      <trkpt lat="45.83765" lon="4.26548">
        <ele>609.635</ele>
        <time>2018-11-21T15:06:14Z</time>
      </trkpt>
      <trkpt lat="45.83759" lon="4.26545">
        <ele>609.999</ele>
        <time>2018-11-21T15:06:19Z</time>
      </trkpt>
      <trkpt lat="45.83753" lon="4.26542">
        <ele>610.621</ele>
        <time>2018-11-21T15:06:25Z</time>
      </trkpt>
      <trkpt lat="45.83748" lon="4.2654">
        <ele>610.885</ele>
        <time>2018-11-21T15:06:31Z</time>
      </trkpt>
      <trkpt lat="45.83744" lon="4.26539">
        <ele>611.542</ele>
        <time>2018-11-21T15:06:37Z</time>
      </trkpt>
      <trkpt lat="45.8374" lon="4.26543">
        <ele>612.064</ele>
        <time>2018-11-21T15:06:43Z</time>
      </trkpt>
      <trkpt lat="45.83742" lon="4.26549">
        <ele>613.324</ele>
        <time>2018-11-21T15:06:49Z</time>
      </trkpt>
      <trkpt lat="45.83742" lon="4.26558">
        <ele>614.432</ele>
        <time>2018-11-21T15:06:55Z</time>
      </trkpt>
      <trkpt lat="45.83745" lon="4.26567">
        <ele>615.717</ele>
        <time>2018-11-21T15:07:01Z</time>
      </trkpt>
      <trkpt lat="45.83747" lon="4.26576">
        <ele>616.953</ele>
        <time>2018-11-21T15:07:07Z</time>
      </trkpt>
      <trkpt lat="45.83747" lon="4.26581">
        <ele>617.924</ele>
        <time>2018-11-21T15:07:13Z</time>
      </trkpt>
      <trkpt lat="45.83744" lon="4.26586">
        <ele>618.809</ele>
        <time>2018-11-21T15:07:18Z</time>
      </trkpt>
      <trkpt lat="45.83739" lon="4.26592">
        <ele>619.912</ele>
        <time>2018-11-21T15:07:24Z</time>
      </trkpt>
      <trkpt lat="45.83732" lon="4.26595">
        <ele>620.717</ele>
        <time>2018-11-21T15:07:30Z</time>
      </trkpt>
      <trkpt lat="45.8373" lon="4.26602">
        <ele>621.606</ele>
        <time>2018-11-21T15:07:35Z</time>
      </trkpt>
      <trkpt lat="45.83725" lon="4.26608">
        <ele>622.321</ele>
        <time>2018-11-21T15:07:41Z</time>
      </trkpt>
      <trkpt lat="45.8372" lon="4.2661">
        <ele>622.268</ele>
        <time>2018-11-21T15:07:47Z</time>
      </trkpt>
      <trkpt lat="45.83716" lon="4.26614">
        <ele>622.16</ele>
        <time>2018-11-21T15:07:52Z</time>
      </trkpt>
      <trkpt lat="45.83709" lon="4.2662">
        <ele>622.239</ele>
        <time>2018-11-21T15:07:58Z</time>
      </trkpt>
      <trkpt lat="45.83706" lon="4.26632">
        <ele>622.182</ele>
        <time>2018-11-21T15:08:04Z</time>
      </trkpt>
      <trkpt lat="45.83707" lon="4.26644">
        <ele>622.334</ele>
        <time>2018-11-21T15:08:09Z</time>
      </trkpt>
      <trkpt lat="45.83703" lon="4.26655">
        <ele>622.762</ele>
        <time>2018-11-21T15:08:15Z</time>
      </trkpt>
      <trkpt lat="45.83703" lon="4.26663">
        <ele>622.992</ele>
        <time>2018-11-21T15:08:20Z</time>
      </trkpt>
      <trkpt lat="45.83698" lon="4.26674">
        <ele>623.7</ele>
        <time>2018-11-21T15:08:26Z</time>
      </trkpt>
      <trkpt lat="45.83697" lon="4.26687">
        <ele>624.904</ele>
        <time>2018-11-21T15:08:31Z</time>
      </trkpt>
      <trkpt lat="45.83693" lon="4.26698">
        <ele>626.487</ele>
        <time>2018-11-21T15:08:37Z</time>
      </trkpt>
      <trkpt lat="45.83688" lon="4.26704">
        <ele>627.722</ele>
        <time>2018-11-21T15:08:42Z</time>
      </trkpt>
      <trkpt lat="45.83681" lon="4.26707">
        <ele>629.176</ele>
        <time>2018-11-21T15:08:48Z</time>
      </trkpt>
      <trkpt lat="45.83678" lon="4.26711">
        <ele>629.931</ele>
        <time>2018-11-21T15:08:53Z</time>
      </trkpt>
      <trkpt lat="45.83668" lon="4.26716">
        <ele>630.615</ele>
        <time>2018-11-21T15:08:59Z</time>
      </trkpt>
      <trkpt lat="45.8366" lon="4.26717">
        <ele>631.084</ele>
        <time>2018-11-21T15:09:04Z</time>
      </trkpt>
      <trkpt lat="45.83651" lon="4.26727">
        <ele>631.863</ele>
        <time>2018-11-21T15:09:10Z</time>
      </trkpt>
      <trkpt lat="45.83646" lon="4.26733">
        <ele>632.871</ele>
        <time>2018-11-21T15:09:16Z</time>
      </trkpt>
      <trkpt lat="45.83643" lon="4.2674">
        <ele>633.5</ele>
        <time>2018-11-21T15:09:22Z</time>
      </trkpt>
      <trkpt lat="45.83638" lon="4.26747">
        <ele>634.003</ele>
        <time>2018-11-21T15:09:28Z</time>
      </trkpt>
      <trkpt lat="45.8363" lon="4.26751">
        <ele>634.369</ele>
        <time>2018-11-21T15:09:34Z</time>
      </trkpt>
      <trkpt lat="45.83623" lon="4.26754">
        <ele>635.049</ele>
        <time>2018-11-21T15:09:40Z</time>
      </trkpt>
      <trkpt lat="45.83617" lon="4.26756">
        <ele>635.729</ele>
        <time>2018-11-21T15:09:46Z</time>
      </trkpt>
      <trkpt lat="45.83609" lon="4.26759">
        <ele>636.126</ele>
        <time>2018-11-21T15:09:52Z</time>
      </trkpt>
      <trkpt lat="45.83603" lon="4.2676">
        <ele>636.944</ele>
        <time>2018-11-21T15:09:58Z</time>
      </trkpt>
      <trkpt lat="45.83599" lon="4.26769">
        <ele>637.409</ele>
        <time>2018-11-21T15:10:04Z</time>
      </trkpt>
      <trkpt lat="45.83596" lon="4.26774">
        <ele>637.584</ele>
        <time>2018-11-21T15:10:09Z</time>
      </trkpt>
      <trkpt lat="45.83592" lon="4.26782">
        <ele>637.454</ele>
        <time>2018-11-21T15:10:14Z</time>
      </trkpt>
      <trkpt lat="45.83582" lon="4.26791">
        <ele>637.879</ele>
        <time>2018-11-21T15:10:20Z</time>
      </trkpt>
      <trkpt lat="45.83579" lon="4.26805">
        <ele>638.071</ele>
        <time>2018-11-21T15:10:26Z</time>
      </trkpt>
      <trkpt lat="45.83578" lon="4.26812">
        <ele>637.522</ele>
        <time>2018-11-21T15:10:31Z</time>
      </trkpt>
      <trkpt lat="45.83576" lon="4.26822">
        <ele>635.985</ele>
        <time>2018-11-21T15:10:37Z</time>
      </trkpt>
      <trkpt lat="45.83576" lon="4.26831">
        <ele>635.506</ele>
        <time>2018-11-21T15:10:43Z</time>
      </trkpt>
      <trkpt lat="45.83592" lon="4.26843">
        <ele>634.969</ele>
        <time>2018-11-21T15:10:49Z</time>
      </trkpt>
      <trkpt lat="45.83592" lon="4.26849">
        <ele>634.236</ele>
        <time>2018-11-21T15:10:55Z</time>
      </trkpt>
      <trkpt lat="45.8359" lon="4.2686">
        <ele>634.082</ele>
        <time>2018-11-21T15:11:01Z</time>
      </trkpt>
      <trkpt lat="45.83587" lon="4.26872">
        <ele>634.043</ele>
        <time>2018-11-21T15:11:06Z</time>
      </trkpt>
      <trkpt lat="45.83582" lon="4.26885">
        <ele>634.265</ele>
        <time>2018-11-21T15:11:12Z</time>
      </trkpt>
      <trkpt lat="45.8358" lon="4.26897">
        <ele>635.133</ele>
        <time>2018-11-21T15:11:18Z</time>
      </trkpt>
      <trkpt lat="45.83576" lon="4.26909">
        <ele>636.755</ele>
        <time>2018-11-21T15:11:24Z</time>
      </trkpt>
      <trkpt lat="45.83576" lon="4.26919">
        <ele>638.18</ele>
        <time>2018-11-21T15:11:30Z</time>
      </trkpt>
      <trkpt lat="45.83576" lon="4.26924">
        <ele>639.151</ele>
        <time>2018-11-21T15:11:35Z</time>
      </trkpt>
      <trkpt lat="45.83572" lon="4.26933">
        <ele>640.323</ele>
        <time>2018-11-21T15:11:41Z</time>
      </trkpt>
      <trkpt lat="45.83571" lon="4.26941">
        <ele>640.659</ele>
        <time>2018-11-21T15:11:46Z</time>
      </trkpt>
      <trkpt lat="45.8357" lon="4.26953">
        <ele>640.522</ele>
        <time>2018-11-21T15:11:52Z</time>
      </trkpt>
      <trkpt lat="45.8357" lon="4.26966">
        <ele>640.372</ele>
        <time>2018-11-21T15:11:57Z</time>
      </trkpt>
      <trkpt lat="45.8357" lon="4.26977">
        <ele>639.96</ele>
        <time>2018-11-21T15:12:02Z</time>
      </trkpt>
      <trkpt lat="45.83574" lon="4.26994">
        <ele>640.549</ele>
        <time>2018-11-21T15:12:08Z</time>
      </trkpt>
      <trkpt lat="45.83571" lon="4.27006">
        <ele>641.2</ele>
        <time>2018-11-21T15:12:14Z</time>
      </trkpt>
      <trkpt lat="45.83568" lon="4.27013">
        <ele>641.72</ele>
        <time>2018-11-21T15:12:20Z</time>
      </trkpt>
      <trkpt lat="45.83567" lon="4.27013">
        <ele>641.859</ele>
        <time>2018-11-21T15:12:25Z</time>
      </trkpt>
    </trkseg>
  </trk>
</gpx>